<?xml version="1.0" encoding="UTF-8" standalone="no" ?>
<gpx xmlns="http://www.topografix.com/GPX/1/1" xmlns:xsi="http://www.w3.org/2001/XMLSchema-instance" xsi:schemaLocation="http://www.topografix.com/GPX/1/1 http://www.topografix.com/GPX/1/1/gpx.xsd" version="1.1" creator="VisuGPX - https://www.visugpx.com">
  <metadata>
    <name>La Chapelle-de-Guinchay Cyclisme</name>
    <desc><![CDATA[Col de la Croix Marchampt au départ de la RD337]]></desc>
  </metadata>
  <trk>
    <name><![CDATA[La Chapelle-de-Guinchay Cyclisme]]></name>
    <trkseg>
      <trkpt lat="46.1244" lon="4.63394">
        <ele>252.80000305176</ele>
        <time>2019-08-27T13:03:21.000Z</time>
      </trkpt>
      <trkpt lat="46.1244" lon="4.63389">
        <ele>253</ele>
        <time>2019-08-27T13:03:22.000Z</time>
      </trkpt>
      <trkpt lat="46.12441" lon="4.63385">
        <ele>253.19999694824</ele>
        <time>2019-08-27T13:03:23.000Z</time>
      </trkpt>
      <trkpt lat="46.12445" lon="4.63369">
        <ele>253.80000305176</ele>
        <time>2019-08-27T13:03:26.000Z</time>
      </trkpt>
      <trkpt lat="46.12448" lon="4.63364">
        <ele>254</ele>
        <time>2019-08-27T13:03:27.000Z</time>
      </trkpt>
      <trkpt lat="46.12458" lon="4.63343">
        <ele>254.60000610352</ele>
        <time>2019-08-27T13:03:31.000Z</time>
      </trkpt>
      <trkpt lat="46.12466" lon="4.63327">
        <ele>254.80000305176</ele>
        <time>2019-08-27T13:03:34.000Z</time>
      </trkpt>
      <trkpt lat="46.12476" lon="4.63304">
        <ele>255.19999694824</ele>
        <time>2019-08-27T13:03:38.000Z</time>
      </trkpt>
      <trkpt lat="46.12477" lon="4.63298">
        <ele>255.39999389648</ele>
        <time>2019-08-27T13:03:39.000Z</time>
      </trkpt>
      <trkpt lat="46.12482" lon="4.63286">
        <ele>255.60000610352</ele>
        <time>2019-08-27T13:03:41.000Z</time>
      </trkpt>
      <trkpt lat="46.12484" lon="4.6328">
        <ele>256</ele>
        <time>2019-08-27T13:03:42.000Z</time>
      </trkpt>
      <trkpt lat="46.12499" lon="4.63247">
        <ele>257</ele>
        <time>2019-08-27T13:03:48.000Z</time>
      </trkpt>
      <trkpt lat="46.12504" lon="4.63237">
        <ele>257.39999389648</ele>
        <time>2019-08-27T13:03:50.000Z</time>
      </trkpt>
      <trkpt lat="46.12507" lon="4.63217">
        <ele>257.79998779297</ele>
        <time>2019-08-27T13:03:53.000Z</time>
      </trkpt>
      <trkpt lat="46.12507" lon="4.63204">
        <ele>258.20001220703</ele>
        <time>2019-08-27T13:03:55.000Z</time>
      </trkpt>
      <trkpt lat="46.12511" lon="4.63187">
        <ele>258.20001220703</ele>
        <time>2019-08-27T13:03:58.000Z</time>
      </trkpt>
      <trkpt lat="46.12516" lon="4.63171">
        <ele>258.39999389648</ele>
        <time>2019-08-27T13:04:01.000Z</time>
      </trkpt>
      <trkpt lat="46.1252" lon="4.63154">
        <ele>258.60000610352</ele>
        <time>2019-08-27T13:04:04.000Z</time>
      </trkpt>
      <trkpt lat="46.12521" lon="4.63144">
        <ele>258.79998779297</ele>
        <time>2019-08-27T13:04:06.000Z</time>
      </trkpt>
      <trkpt lat="46.12521" lon="4.63138">
        <ele>259</ele>
        <time>2019-08-27T13:04:07.000Z</time>
      </trkpt>
      <trkpt lat="46.12523" lon="4.63108">
        <ele>260</ele>
        <time>2019-08-27T13:04:13.000Z</time>
      </trkpt>
      <trkpt lat="46.12524" lon="4.63088">
        <ele>261</ele>
        <time>2019-08-27T13:04:17.000Z</time>
      </trkpt>
      <trkpt lat="46.12525" lon="4.63067">
        <ele>262</ele>
        <time>2019-08-27T13:04:21.000Z</time>
      </trkpt>
      <trkpt lat="46.12526" lon="4.63047">
        <ele>262.79998779297</ele>
        <time>2019-08-27T13:04:25.000Z</time>
      </trkpt>
      <trkpt lat="46.12527" lon="4.63026">
        <ele>263.39999389648</ele>
        <time>2019-08-27T13:04:29.000Z</time>
      </trkpt>
      <trkpt lat="46.12527" lon="4.6302">
        <ele>263.39999389648</ele>
        <time>2019-08-27T13:04:30.000Z</time>
      </trkpt>
      <trkpt lat="46.12528" lon="4.62994">
        <ele>263.60000610352</ele>
        <time>2019-08-27T13:04:35.000Z</time>
      </trkpt>
      <trkpt lat="46.12527" lon="4.62983">
        <ele>263.79998779297</ele>
        <time>2019-08-27T13:04:37.000Z</time>
      </trkpt>
      <trkpt lat="46.12526" lon="4.62962">
        <ele>264.20001220703</ele>
        <time>2019-08-27T13:04:41.000Z</time>
      </trkpt>
      <trkpt lat="46.12523" lon="4.62941">
        <ele>264.79998779297</ele>
        <time>2019-08-27T13:04:45.000Z</time>
      </trkpt>
      <trkpt lat="46.12521" lon="4.62926">
        <ele>265.20001220703</ele>
        <time>2019-08-27T13:04:48.000Z</time>
      </trkpt>
      <trkpt lat="46.12514" lon="4.62901">
        <ele>266</ele>
        <time>2019-08-27T13:04:53.000Z</time>
      </trkpt>
      <trkpt lat="46.1251" lon="4.62892">
        <ele>266.60000610352</ele>
        <time>2019-08-27T13:04:55.000Z</time>
      </trkpt>
      <trkpt lat="46.12501" lon="4.62876">
        <ele>267.60000610352</ele>
        <time>2019-08-27T13:04:59.000Z</time>
      </trkpt>
      <trkpt lat="46.12488" lon="4.62866">
        <ele>269</ele>
        <time>2019-08-27T13:05:03.000Z</time>
      </trkpt>
      <trkpt lat="46.12481" lon="4.62862">
        <ele>269.39999389648</ele>
        <time>2019-08-27T13:05:05.000Z</time>
      </trkpt>
      <trkpt lat="46.12461" lon="4.62854">
        <ele>270.39999389648</ele>
        <time>2019-08-27T13:05:11.000Z</time>
      </trkpt>
      <trkpt lat="46.12458" lon="4.62852">
        <ele>270.60000610352</ele>
        <time>2019-08-27T13:05:12.000Z</time>
      </trkpt>
      <trkpt lat="46.12447" lon="4.62848">
        <ele>271</ele>
        <time>2019-08-27T13:05:15.000Z</time>
      </trkpt>
      <trkpt lat="46.1243" lon="4.6284">
        <ele>271.79998779297</ele>
        <time>2019-08-27T13:05:20.000Z</time>
      </trkpt>
      <trkpt lat="46.12402" lon="4.62821">
        <ele>272.79998779297</ele>
        <time>2019-08-27T13:05:28.000Z</time>
      </trkpt>
      <trkpt lat="46.12382" lon="4.62787">
        <ele>272.39999389648</ele>
        <time>2019-08-27T13:05:35.000Z</time>
      </trkpt>
      <trkpt lat="46.12363" lon="4.62755">
        <ele>272.79998779297</ele>
        <time>2019-08-27T13:05:41.000Z</time>
      </trkpt>
      <trkpt lat="46.12356" lon="4.62745">
        <ele>272.79998779297</ele>
        <time>2019-08-27T13:05:43.000Z</time>
      </trkpt>
      <trkpt lat="46.12331" lon="4.62703">
        <ele>273</ele>
        <time>2019-08-27T13:05:50.000Z</time>
      </trkpt>
      <trkpt lat="46.12304" lon="4.62661">
        <ele>273.60000610352</ele>
        <time>2019-08-27T13:05:57.000Z</time>
      </trkpt>
      <trkpt lat="46.12274" lon="4.62611">
        <ele>274</ele>
        <time>2019-08-27T13:06:05.000Z</time>
      </trkpt>
      <trkpt lat="46.12266" lon="4.626">
        <ele>274.20001220703</ele>
        <time>2019-08-27T13:06:07.000Z</time>
      </trkpt>
      <trkpt lat="46.12236" lon="4.62558">
        <ele>275.60000610352</ele>
        <time>2019-08-27T13:06:15.000Z</time>
      </trkpt>
      <trkpt lat="46.12231" lon="4.62554">
        <ele>275.60000610352</ele>
        <time>2019-08-27T13:06:16.000Z</time>
      </trkpt>
      <trkpt lat="46.12193" lon="4.62517">
        <ele>277.20001220703</ele>
        <time>2019-08-27T13:06:25.000Z</time>
      </trkpt>
      <trkpt lat="46.12165" lon="4.62492">
        <ele>278.60000610352</ele>
        <time>2019-08-27T13:06:32.000Z</time>
      </trkpt>
      <trkpt lat="46.12149" lon="4.62476">
        <ele>279.39999389648</ele>
        <time>2019-08-27T13:06:36.000Z</time>
      </trkpt>
      <trkpt lat="46.12129" lon="4.62458">
        <ele>280.39999389648</ele>
        <time>2019-08-27T13:06:41.000Z</time>
      </trkpt>
      <trkpt lat="46.12106" lon="4.62436">
        <ele>282</ele>
        <time>2019-08-27T13:06:47.000Z</time>
      </trkpt>
      <trkpt lat="46.12094" lon="4.62426">
        <ele>282.79998779297</ele>
        <time>2019-08-27T13:06:50.000Z</time>
      </trkpt>
      <trkpt lat="46.12076" lon="4.62406">
        <ele>284.20001220703</ele>
        <time>2019-08-27T13:06:55.000Z</time>
      </trkpt>
      <trkpt lat="46.12068" lon="4.62399">
        <ele>284.60000610352</ele>
        <time>2019-08-27T13:06:57.000Z</time>
      </trkpt>
      <trkpt lat="46.12063" lon="4.62396">
        <ele>285</ele>
        <time>2019-08-27T13:06:58.000Z</time>
      </trkpt>
      <trkpt lat="46.12055" lon="4.62388">
        <ele>285.20001220703</ele>
        <time>2019-08-27T13:07:00.000Z</time>
      </trkpt>
      <trkpt lat="46.12028" lon="4.62362">
        <ele>286</ele>
        <time>2019-08-27T13:07:07.000Z</time>
      </trkpt>
      <trkpt lat="46.12016" lon="4.6235">
        <ele>286.20001220703</ele>
        <time>2019-08-27T13:07:10.000Z</time>
      </trkpt>
      <trkpt lat="46.12013" lon="4.62346">
        <ele>286.20001220703</ele>
        <time>2019-08-27T13:07:11.000Z</time>
      </trkpt>
      <trkpt lat="46.12007" lon="4.62336">
        <ele>286.39999389648</ele>
        <time>2019-08-27T13:07:13.000Z</time>
      </trkpt>
      <trkpt lat="46.12001" lon="4.62327">
        <ele>286.60000610352</ele>
        <time>2019-08-27T13:07:15.000Z</time>
      </trkpt>
      <trkpt lat="46.11989" lon="4.62302">
        <ele>286.79998779297</ele>
        <time>2019-08-27T13:07:20.000Z</time>
      </trkpt>
      <trkpt lat="46.11988" lon="4.62296">
        <ele>286.79998779297</ele>
        <time>2019-08-27T13:07:21.000Z</time>
      </trkpt>
      <trkpt lat="46.11986" lon="4.62278">
        <ele>287.20001220703</ele>
        <time>2019-08-27T13:07:24.000Z</time>
      </trkpt>
      <trkpt lat="46.11986" lon="4.62272">
        <ele>287.39999389648</ele>
        <time>2019-08-27T13:07:25.000Z</time>
      </trkpt>
      <trkpt lat="46.11987" lon="4.62266">
        <ele>287.60000610352</ele>
        <time>2019-08-27T13:07:26.000Z</time>
      </trkpt>
      <trkpt lat="46.1199" lon="4.62249">
        <ele>288.39999389648</ele>
        <time>2019-08-27T13:07:29.000Z</time>
      </trkpt>
      <trkpt lat="46.11991" lon="4.62243">
        <ele>288.60000610352</ele>
        <time>2019-08-27T13:07:30.000Z</time>
      </trkpt>
      <trkpt lat="46.11994" lon="4.62232">
        <ele>289</ele>
        <time>2019-08-27T13:07:32.000Z</time>
      </trkpt>
      <trkpt lat="46.12001" lon="4.62203">
        <ele>290</ele>
        <time>2019-08-27T13:07:37.000Z</time>
      </trkpt>
      <trkpt lat="46.12005" lon="4.62186">
        <ele>290.20001220703</ele>
        <time>2019-08-27T13:07:40.000Z</time>
      </trkpt>
      <trkpt lat="46.12007" lon="4.62175">
        <ele>290.39999389648</ele>
        <time>2019-08-27T13:07:42.000Z</time>
      </trkpt>
      <trkpt lat="46.12013" lon="4.62153">
        <ele>290.60000610352</ele>
        <time>2019-08-27T13:07:46.000Z</time>
      </trkpt>
      <trkpt lat="46.12015" lon="4.62142">
        <ele>291.20001220703</ele>
        <time>2019-08-27T13:07:48.000Z</time>
      </trkpt>
      <trkpt lat="46.1202" lon="4.6212">
        <ele>292.39999389648</ele>
        <time>2019-08-27T13:07:52.000Z</time>
      </trkpt>
      <trkpt lat="46.12023" lon="4.62104">
        <ele>293.20001220703</ele>
        <time>2019-08-27T13:07:55.000Z</time>
      </trkpt>
      <trkpt lat="46.12024" lon="4.62098">
        <ele>293.39999389648</ele>
        <time>2019-08-27T13:07:56.000Z</time>
      </trkpt>
      <trkpt lat="46.12029" lon="4.62077">
        <ele>294.20001220703</ele>
        <time>2019-08-27T13:08:00.000Z</time>
      </trkpt>
      <trkpt lat="46.12033" lon="4.62055">
        <ele>294.79998779297</ele>
        <time>2019-08-27T13:08:04.000Z</time>
      </trkpt>
      <trkpt lat="46.12035" lon="4.62049">
        <ele>295</ele>
        <time>2019-08-27T13:08:05.000Z</time>
      </trkpt>
      <trkpt lat="46.1204" lon="4.62017">
        <ele>296.39999389648</ele>
        <time>2019-08-27T13:08:11.000Z</time>
      </trkpt>
      <trkpt lat="46.12041" lon="4.62001">
        <ele>297.20001220703</ele>
        <time>2019-08-27T13:08:14.000Z</time>
      </trkpt>
      <trkpt lat="46.12043" lon="4.6199">
        <ele>297.79998779297</ele>
        <time>2019-08-27T13:08:16.000Z</time>
      </trkpt>
      <trkpt lat="46.12047" lon="4.61963">
        <ele>299.20001220703</ele>
        <time>2019-08-27T13:08:21.000Z</time>
      </trkpt>
      <trkpt lat="46.12048" lon="4.61958">
        <ele>299.39999389648</ele>
        <time>2019-08-27T13:08:22.000Z</time>
      </trkpt>
      <trkpt lat="46.12051" lon="4.61931">
        <ele>300.79998779297</ele>
        <time>2019-08-27T13:08:27.000Z</time>
      </trkpt>
      <trkpt lat="46.12055" lon="4.6191">
        <ele>301.79998779297</ele>
        <time>2019-08-27T13:08:31.000Z</time>
      </trkpt>
      <trkpt lat="46.12057" lon="4.61895">
        <ele>302.60000610352</ele>
        <time>2019-08-27T13:08:34.000Z</time>
      </trkpt>
      <trkpt lat="46.12057" lon="4.61873">
        <ele>303.79998779297</ele>
        <time>2019-08-27T13:08:38.000Z</time>
      </trkpt>
      <trkpt lat="46.12054" lon="4.61846">
        <ele>305</ele>
        <time>2019-08-27T13:08:43.000Z</time>
      </trkpt>
      <trkpt lat="46.12053" lon="4.61836">
        <ele>305.39999389648</ele>
        <time>2019-08-27T13:08:45.000Z</time>
      </trkpt>
      <trkpt lat="46.12049" lon="4.61809">
        <ele>306.79998779297</ele>
        <time>2019-08-27T13:08:50.000Z</time>
      </trkpt>
      <trkpt lat="46.12047" lon="4.61794">
        <ele>307.39999389648</ele>
        <time>2019-08-27T13:08:53.000Z</time>
      </trkpt>
      <trkpt lat="46.12044" lon="4.61784">
        <ele>307.79998779297</ele>
        <time>2019-08-27T13:08:55.000Z</time>
      </trkpt>
      <trkpt lat="46.12041" lon="4.61759">
        <ele>309.20001220703</ele>
        <time>2019-08-27T13:09:00.000Z</time>
      </trkpt>
      <trkpt lat="46.1204" lon="4.61754">
        <ele>309.39999389648</ele>
        <time>2019-08-27T13:09:01.000Z</time>
      </trkpt>
      <trkpt lat="46.12036" lon="4.6173">
        <ele>310.79998779297</ele>
        <time>2019-08-27T13:09:06.000Z</time>
      </trkpt>
      <trkpt lat="46.12034" lon="4.61719">
        <ele>311.39999389648</ele>
        <time>2019-08-27T13:09:08.000Z</time>
      </trkpt>
      <trkpt lat="46.12031" lon="4.617">
        <ele>312.39999389648</ele>
        <time>2019-08-27T13:09:12.000Z</time>
      </trkpt>
      <trkpt lat="46.12025" lon="4.61682">
        <ele>313.60000610352</ele>
        <time>2019-08-27T13:09:16.000Z</time>
      </trkpt>
      <trkpt lat="46.12024" lon="4.61678">
        <ele>313.79998779297</ele>
        <time>2019-08-27T13:09:17.000Z</time>
      </trkpt>
      <trkpt lat="46.1201" lon="4.61658">
        <ele>315</ele>
        <time>2019-08-27T13:09:23.000Z</time>
      </trkpt>
      <trkpt lat="46.1199" lon="4.61647">
        <ele>315.20001220703</ele>
        <time>2019-08-27T13:09:29.000Z</time>
      </trkpt>
      <trkpt lat="46.11971" lon="4.61637">
        <ele>315.60000610352</ele>
        <time>2019-08-27T13:09:35.000Z</time>
      </trkpt>
      <trkpt lat="46.11961" lon="4.61632">
        <ele>316</ele>
        <time>2019-08-27T13:09:38.000Z</time>
      </trkpt>
      <trkpt lat="46.1195" lon="4.61626">
        <ele>316.60000610352</ele>
        <time>2019-08-27T13:09:42.000Z</time>
      </trkpt>
      <trkpt lat="46.1194" lon="4.61621">
        <ele>316.79998779297</ele>
        <time>2019-08-27T13:09:45.000Z</time>
      </trkpt>
      <trkpt lat="46.11934" lon="4.61617">
        <ele>317</ele>
        <time>2019-08-27T13:09:47.000Z</time>
      </trkpt>
      <trkpt lat="46.11922" lon="4.61611">
        <ele>317.39999389648</ele>
        <time>2019-08-27T13:09:51.000Z</time>
      </trkpt>
      <trkpt lat="46.11919" lon="4.61609">
        <ele>317.39999389648</ele>
        <time>2019-08-27T13:09:52.000Z</time>
      </trkpt>
      <trkpt lat="46.1191" lon="4.61604">
        <ele>317.60000610352</ele>
        <time>2019-08-27T13:09:55.000Z</time>
      </trkpt>
      <trkpt lat="46.11897" lon="4.61597">
        <ele>318</ele>
        <time>2019-08-27T13:09:59.000Z</time>
      </trkpt>
      <trkpt lat="46.11879" lon="4.61584">
        <ele>319</ele>
        <time>2019-08-27T13:10:05.000Z</time>
      </trkpt>
      <trkpt lat="46.1187" lon="4.61577">
        <ele>319.60000610352</ele>
        <time>2019-08-27T13:10:08.000Z</time>
      </trkpt>
      <trkpt lat="46.11868" lon="4.61575">
        <ele>319.79998779297</ele>
        <time>2019-08-27T13:10:09.000Z</time>
      </trkpt>
      <trkpt lat="46.11849" lon="4.61555">
        <ele>321.20001220703</ele>
        <time>2019-08-27T13:10:16.000Z</time>
      </trkpt>
      <trkpt lat="46.11843" lon="4.6155">
        <ele>321.60000610352</ele>
        <time>2019-08-27T13:10:18.000Z</time>
      </trkpt>
      <trkpt lat="46.11833" lon="4.61538">
        <ele>322.39999389648</ele>
        <time>2019-08-27T13:10:22.000Z</time>
      </trkpt>
      <trkpt lat="46.11813" lon="4.61521">
        <ele>324</ele>
        <time>2019-08-27T13:10:29.000Z</time>
      </trkpt>
      <trkpt lat="46.11799" lon="4.61499">
        <ele>325.20001220703</ele>
        <time>2019-08-27T13:10:35.000Z</time>
      </trkpt>
      <trkpt lat="46.11793" lon="4.61486">
        <ele>326</ele>
        <time>2019-08-27T13:10:38.000Z</time>
      </trkpt>
      <trkpt lat="46.11784" lon="4.61469">
        <ele>326.79998779297</ele>
        <time>2019-08-27T13:10:43.000Z</time>
      </trkpt>
      <trkpt lat="46.11777" lon="4.61454">
        <ele>327.60000610352</ele>
        <time>2019-08-27T13:10:47.000Z</time>
      </trkpt>
      <trkpt lat="46.11771" lon="4.61442">
        <ele>328</ele>
        <time>2019-08-27T13:10:50.000Z</time>
      </trkpt>
      <trkpt lat="46.11768" lon="4.61434">
        <ele>328.20001220703</ele>
        <time>2019-08-27T13:10:52.000Z</time>
      </trkpt>
      <trkpt lat="46.11763" lon="4.61423">
        <ele>328.39999389648</ele>
        <time>2019-08-27T13:10:55.000Z</time>
      </trkpt>
      <trkpt lat="46.11757" lon="4.61411">
        <ele>328.60000610352</ele>
        <time>2019-08-27T13:10:58.000Z</time>
      </trkpt>
      <trkpt lat="46.11755" lon="4.61407">
        <ele>328.60000610352</ele>
        <time>2019-08-27T13:10:59.000Z</time>
      </trkpt>
      <trkpt lat="46.11743" lon="4.61385">
        <ele>329</ele>
        <time>2019-08-27T13:11:05.000Z</time>
      </trkpt>
      <trkpt lat="46.11729" lon="4.61363">
        <ele>329.20001220703</ele>
        <time>2019-08-27T13:11:11.000Z</time>
      </trkpt>
      <trkpt lat="46.11726" lon="4.61359">
        <ele>329</ele>
        <time>2019-08-27T13:11:12.000Z</time>
      </trkpt>
      <trkpt lat="46.11707" lon="4.61331">
        <ele>327.20001220703</ele>
        <time>2019-08-27T13:11:18.000Z</time>
      </trkpt>
      <trkpt lat="46.117" lon="4.61317">
        <ele>326.60000610352</ele>
        <time>2019-08-27T13:11:20.000Z</time>
      </trkpt>
      <trkpt lat="46.1169" lon="4.61292">
        <ele>326</ele>
        <time>2019-08-27T13:11:23.000Z</time>
      </trkpt>
      <trkpt lat="46.11682" lon="4.61263">
        <ele>325</ele>
        <time>2019-08-27T13:11:26.000Z</time>
      </trkpt>
      <trkpt lat="46.11678" lon="4.61241">
        <ele>324.39999389648</ele>
        <time>2019-08-27T13:11:28.000Z</time>
      </trkpt>
      <trkpt lat="46.11676" lon="4.6123">
        <ele>324.20001220703</ele>
        <time>2019-08-27T13:11:29.000Z</time>
      </trkpt>
      <trkpt lat="46.11672" lon="4.61219">
        <ele>324</ele>
        <time>2019-08-27T13:11:30.000Z</time>
      </trkpt>
      <trkpt lat="46.11666" lon="4.61196">
        <ele>323.60000610352</ele>
        <time>2019-08-27T13:11:32.000Z</time>
      </trkpt>
      <trkpt lat="46.1166" lon="4.61173">
        <ele>323.79998779297</ele>
        <time>2019-08-27T13:11:34.000Z</time>
      </trkpt>
      <trkpt lat="46.11653" lon="4.61151">
        <ele>324</ele>
        <time>2019-08-27T13:11:36.000Z</time>
      </trkpt>
      <trkpt lat="46.1164" lon="4.61099">
        <ele>325</ele>
        <time>2019-08-27T13:11:41.000Z</time>
      </trkpt>
      <trkpt lat="46.11628" lon="4.61064">
        <ele>326.60000610352</ele>
        <time>2019-08-27T13:11:45.000Z</time>
      </trkpt>
      <trkpt lat="46.11624" lon="4.61056">
        <ele>327</ele>
        <time>2019-08-27T13:11:46.000Z</time>
      </trkpt>
      <trkpt lat="46.11602" lon="4.61029">
        <ele>328.39999389648</ele>
        <time>2019-08-27T13:11:51.000Z</time>
      </trkpt>
      <trkpt lat="46.11592" lon="4.61023">
        <ele>328.79998779297</ele>
        <time>2019-08-27T13:11:53.000Z</time>
      </trkpt>
      <trkpt lat="46.11572" lon="4.61013">
        <ele>329.39999389648</ele>
        <time>2019-08-27T13:11:57.000Z</time>
      </trkpt>
      <trkpt lat="46.11551" lon="4.60997">
        <ele>330</ele>
        <time>2019-08-27T13:12:02.000Z</time>
      </trkpt>
      <trkpt lat="46.11544" lon="4.60989">
        <ele>330.39999389648</ele>
        <time>2019-08-27T13:12:04.000Z</time>
      </trkpt>
      <trkpt lat="46.11538" lon="4.60979">
        <ele>330.79998779297</ele>
        <time>2019-08-27T13:12:06.000Z</time>
      </trkpt>
      <trkpt lat="46.11527" lon="4.60961">
        <ele>331.60000610352</ele>
        <time>2019-08-27T13:12:10.000Z</time>
      </trkpt>
      <trkpt lat="46.11524" lon="4.60957">
        <ele>331.79998779297</ele>
        <time>2019-08-27T13:12:11.000Z</time>
      </trkpt>
      <trkpt lat="46.11514" lon="4.60935">
        <ele>333</ele>
        <time>2019-08-27T13:12:16.000Z</time>
      </trkpt>
      <trkpt lat="46.11511" lon="4.60926">
        <ele>333.39999389648</ele>
        <time>2019-08-27T13:12:18.000Z</time>
      </trkpt>
      <trkpt lat="46.1151" lon="4.60921">
        <ele>333.60000610352</ele>
        <time>2019-08-27T13:12:19.000Z</time>
      </trkpt>
      <trkpt lat="46.11507" lon="4.60912">
        <ele>334.20001220703</ele>
        <time>2019-08-27T13:12:21.000Z</time>
      </trkpt>
      <trkpt lat="46.11504" lon="4.60898">
        <ele>334.79998779297</ele>
        <time>2019-08-27T13:12:24.000Z</time>
      </trkpt>
      <trkpt lat="46.11503" lon="4.60894">
        <ele>335</ele>
        <time>2019-08-27T13:12:25.000Z</time>
      </trkpt>
      <trkpt lat="46.115" lon="4.60876">
        <ele>336.39999389648</ele>
        <time>2019-08-27T13:12:29.000Z</time>
      </trkpt>
      <trkpt lat="46.11499" lon="4.60861">
        <ele>337.60000610352</ele>
        <time>2019-08-27T13:12:32.000Z</time>
      </trkpt>
      <trkpt lat="46.11497" lon="4.60832">
        <ele>340</ele>
        <time>2019-08-27T13:12:38.000Z</time>
      </trkpt>
      <trkpt lat="46.11496" lon="4.60823">
        <ele>340.79998779297</ele>
        <time>2019-08-27T13:12:40.000Z</time>
      </trkpt>
      <trkpt lat="46.11496" lon="4.60818">
        <ele>341.20001220703</ele>
        <time>2019-08-27T13:12:41.000Z</time>
      </trkpt>
      <trkpt lat="46.11494" lon="4.60794">
        <ele>343.39999389648</ele>
        <time>2019-08-27T13:12:46.000Z</time>
      </trkpt>
      <trkpt lat="46.11493" lon="4.6079">
        <ele>343.79998779297</ele>
        <time>2019-08-27T13:12:47.000Z</time>
      </trkpt>
      <trkpt lat="46.11491" lon="4.60768">
        <ele>346.39999389648</ele>
        <time>2019-08-27T13:12:52.000Z</time>
      </trkpt>
      <trkpt lat="46.11482" lon="4.60745">
        <ele>348.79998779297</ele>
        <time>2019-08-27T13:12:58.000Z</time>
      </trkpt>
      <trkpt lat="46.11466" lon="4.60725">
        <ele>349.79998779297</ele>
        <time>2019-08-27T13:13:05.000Z</time>
      </trkpt>
      <trkpt lat="46.11464" lon="4.60722">
        <ele>350</ele>
        <time>2019-08-27T13:13:06.000Z</time>
      </trkpt>
      <trkpt lat="46.11442" lon="4.60697">
        <ele>350.79998779297</ele>
        <time>2019-08-27T13:13:16.000Z</time>
      </trkpt>
      <trkpt lat="46.11439" lon="4.60694">
        <ele>350.60000610352</ele>
        <time>2019-08-27T13:13:17.000Z</time>
      </trkpt>
      <trkpt lat="46.11431" lon="4.60684">
        <ele>350.20001220703</ele>
        <time>2019-08-27T13:13:21.000Z</time>
      </trkpt>
      <trkpt lat="46.11427" lon="4.60678">
        <ele>350</ele>
        <time>2019-08-27T13:13:23.000Z</time>
      </trkpt>
      <trkpt lat="46.11425" lon="4.60676">
        <ele>350</ele>
        <time>2019-08-27T13:13:24.000Z</time>
      </trkpt>
      <trkpt lat="46.11417" lon="4.60664">
        <ele>349.60000610352</ele>
        <time>2019-08-27T13:13:28.000Z</time>
      </trkpt>
      <trkpt lat="46.11413" lon="4.60657">
        <ele>349.60000610352</ele>
        <time>2019-08-27T13:13:30.000Z</time>
      </trkpt>
      <trkpt lat="46.1141" lon="4.6065">
        <ele>349.39999389648</ele>
        <time>2019-08-27T13:13:32.000Z</time>
      </trkpt>
      <trkpt lat="46.11404" lon="4.60635">
        <ele>349.39999389648</ele>
        <time>2019-08-27T13:13:36.000Z</time>
      </trkpt>
      <trkpt lat="46.11403" lon="4.60631">
        <ele>349.39999389648</ele>
        <time>2019-08-27T13:13:37.000Z</time>
      </trkpt>
      <trkpt lat="46.114" lon="4.60619">
        <ele>349.60000610352</ele>
        <time>2019-08-27T13:13:40.000Z</time>
      </trkpt>
      <trkpt lat="46.11397" lon="4.60602">
        <ele>350.20001220703</ele>
        <time>2019-08-27T13:13:44.000Z</time>
      </trkpt>
      <trkpt lat="46.11395" lon="4.60598">
        <ele>350.20001220703</ele>
        <time>2019-08-27T13:13:45.000Z</time>
      </trkpt>
      <trkpt lat="46.11395" lon="4.60594">
        <ele>350.20001220703</ele>
        <time>2019-08-27T13:13:46.000Z</time>
      </trkpt>
      <trkpt lat="46.11391" lon="4.60564">
        <ele>351.20001220703</ele>
        <time>2019-08-27T13:13:53.000Z</time>
      </trkpt>
      <trkpt lat="46.1139" lon="4.60551">
        <ele>351.60000610352</ele>
        <time>2019-08-27T13:13:56.000Z</time>
      </trkpt>
      <trkpt lat="46.1139" lon="4.60532">
        <ele>352.20001220703</ele>
        <time>2019-08-27T13:14:00.000Z</time>
      </trkpt>
      <trkpt lat="46.11393" lon="4.60492">
        <ele>351.79998779297</ele>
        <time>2019-08-27T13:14:07.000Z</time>
      </trkpt>
      <trkpt lat="46.11398" lon="4.60452">
        <ele>351.79998779297</ele>
        <time>2019-08-27T13:14:14.000Z</time>
      </trkpt>
      <trkpt lat="46.11406" lon="4.6041">
        <ele>350.79998779297</ele>
        <time>2019-08-27T13:14:22.000Z</time>
      </trkpt>
      <trkpt lat="46.11409" lon="4.60399">
        <ele>350.60000610352</ele>
        <time>2019-08-27T13:14:24.000Z</time>
      </trkpt>
      <trkpt lat="46.11417" lon="4.60376">
        <ele>351</ele>
        <time>2019-08-27T13:14:29.000Z</time>
      </trkpt>
      <trkpt lat="46.11419" lon="4.60371">
        <ele>351.20001220703</ele>
        <time>2019-08-27T13:14:30.000Z</time>
      </trkpt>
      <trkpt lat="46.1143" lon="4.60339">
        <ele>352</ele>
        <time>2019-08-27T13:14:37.000Z</time>
      </trkpt>
      <trkpt lat="46.11447" lon="4.60295">
        <ele>352.79998779297</ele>
        <time>2019-08-27T13:14:45.000Z</time>
      </trkpt>
      <trkpt lat="46.11463" lon="4.60246">
        <ele>355.79998779297</ele>
        <time>2019-08-27T13:14:53.000Z</time>
      </trkpt>
      <trkpt lat="46.11467" lon="4.60226">
        <ele>356</ele>
        <time>2019-08-27T13:14:56.000Z</time>
      </trkpt>
      <trkpt lat="46.11468" lon="4.60204">
        <ele>355.79998779297</ele>
        <time>2019-08-27T13:14:59.000Z</time>
      </trkpt>
      <trkpt lat="46.11468" lon="4.60154">
        <ele>357.60000610352</ele>
        <time>2019-08-27T13:15:06.000Z</time>
      </trkpt>
      <trkpt lat="46.11467" lon="4.60148">
        <ele>357.60000610352</ele>
        <time>2019-08-27T13:15:07.000Z</time>
      </trkpt>
      <trkpt lat="46.11464" lon="4.60135">
        <ele>357.79998779297</ele>
        <time>2019-08-27T13:15:09.000Z</time>
      </trkpt>
      <trkpt lat="46.11461" lon="4.60122">
        <ele>357.79998779297</ele>
        <time>2019-08-27T13:15:11.000Z</time>
      </trkpt>
      <trkpt lat="46.11459" lon="4.60117">
        <ele>357.79998779297</ele>
        <time>2019-08-27T13:15:12.000Z</time>
      </trkpt>
      <trkpt lat="46.11455" lon="4.60106">
        <ele>358.20001220703</ele>
        <time>2019-08-27T13:15:14.000Z</time>
      </trkpt>
      <trkpt lat="46.11451" lon="4.60091">
        <ele>359</ele>
        <time>2019-08-27T13:15:17.000Z</time>
      </trkpt>
      <trkpt lat="46.11448" lon="4.60081">
        <ele>359.60000610352</ele>
        <time>2019-08-27T13:15:19.000Z</time>
      </trkpt>
      <trkpt lat="46.11437" lon="4.6006">
        <ele>360.60000610352</ele>
        <time>2019-08-27T13:15:24.000Z</time>
      </trkpt>
      <trkpt lat="46.11435" lon="4.60055">
        <ele>360.79998779297</ele>
        <time>2019-08-27T13:15:25.000Z</time>
      </trkpt>
      <trkpt lat="46.11422" lon="4.6003">
        <ele>361.79998779297</ele>
        <time>2019-08-27T13:15:31.000Z</time>
      </trkpt>
      <trkpt lat="46.11416" lon="4.60012">
        <ele>362.60000610352</ele>
        <time>2019-08-27T13:15:35.000Z</time>
      </trkpt>
      <trkpt lat="46.11407" lon="4.59993">
        <ele>363.20001220703</ele>
        <time>2019-08-27T13:15:39.000Z</time>
      </trkpt>
      <trkpt lat="46.1139" lon="4.59956">
        <ele>363.60000610352</ele>
        <time>2019-08-27T13:15:46.000Z</time>
      </trkpt>
      <trkpt lat="46.11385" lon="4.59945">
        <ele>363</ele>
        <time>2019-08-27T13:15:48.000Z</time>
      </trkpt>
      <trkpt lat="46.1137" lon="4.59908">
        <ele>362.20001220703</ele>
        <time>2019-08-27T13:15:54.000Z</time>
      </trkpt>
      <trkpt lat="46.11359" lon="4.59857">
        <ele>362.60000610352</ele>
        <time>2019-08-27T13:16:01.000Z</time>
      </trkpt>
      <trkpt lat="46.11352" lon="4.59812">
        <ele>362</ele>
        <time>2019-08-27T13:16:07.000Z</time>
      </trkpt>
      <trkpt lat="46.11352" lon="4.59805">
        <ele>362.39999389648</ele>
        <time>2019-08-27T13:16:08.000Z</time>
      </trkpt>
      <trkpt lat="46.11355" lon="4.59742">
        <ele>366.60000610352</ele>
        <time>2019-08-27T13:16:16.000Z</time>
      </trkpt>
      <trkpt lat="46.11358" lon="4.59708">
        <ele>368.20001220703</ele>
        <time>2019-08-27T13:16:20.000Z</time>
      </trkpt>
      <trkpt lat="46.11357" lon="4.59684">
        <ele>371.60000610352</ele>
        <time>2019-08-27T13:16:23.000Z</time>
      </trkpt>
      <trkpt lat="46.11354" lon="4.59676">
        <ele>372.60000610352</ele>
        <time>2019-08-27T13:16:24.000Z</time>
      </trkpt>
      <trkpt lat="46.11337" lon="4.5964">
        <ele>374.20001220703</ele>
        <time>2019-08-27T13:16:29.000Z</time>
      </trkpt>
      <trkpt lat="46.11333" lon="4.59634">
        <ele>374</ele>
        <time>2019-08-27T13:16:30.000Z</time>
      </trkpt>
      <trkpt lat="46.11315" lon="4.59606">
        <ele>373.20001220703</ele>
        <time>2019-08-27T13:16:35.000Z</time>
      </trkpt>
      <trkpt lat="46.11308" lon="4.59596">
        <ele>372.60000610352</ele>
        <time>2019-08-27T13:16:37.000Z</time>
      </trkpt>
      <trkpt lat="46.11298" lon="4.59581">
        <ele>371.60000610352</ele>
        <time>2019-08-27T13:16:40.000Z</time>
      </trkpt>
      <trkpt lat="46.11293" lon="4.5957">
        <ele>371.60000610352</ele>
        <time>2019-08-27T13:16:42.000Z</time>
      </trkpt>
      <trkpt lat="46.1128" lon="4.59536">
        <ele>372.79998779297</ele>
        <time>2019-08-27T13:16:49.000Z</time>
      </trkpt>
      <trkpt lat="46.11278" lon="4.59526">
        <ele>372.39999389648</ele>
        <time>2019-08-27T13:16:51.000Z</time>
      </trkpt>
      <trkpt lat="46.11273" lon="4.59502">
        <ele>371.79998779297</ele>
        <time>2019-08-27T13:16:56.000Z</time>
      </trkpt>
      <trkpt lat="46.11271" lon="4.59478">
        <ele>372.39999389648</ele>
        <time>2019-08-27T13:17:01.000Z</time>
      </trkpt>
      <trkpt lat="46.1127" lon="4.59455">
        <ele>373.79998779297</ele>
        <time>2019-08-27T13:17:06.000Z</time>
      </trkpt>
      <trkpt lat="46.11271" lon="4.59413">
        <ele>372.39999389648</ele>
        <time>2019-08-27T13:17:15.000Z</time>
      </trkpt>
      <trkpt lat="46.11271" lon="4.59403">
        <ele>372</ele>
        <time>2019-08-27T13:17:17.000Z</time>
      </trkpt>
      <trkpt lat="46.11274" lon="4.59372">
        <ele>371.60000610352</ele>
        <time>2019-08-27T13:17:24.000Z</time>
      </trkpt>
      <trkpt lat="46.11274" lon="4.59367">
        <ele>371.60000610352</ele>
        <time>2019-08-27T13:17:25.000Z</time>
      </trkpt>
      <trkpt lat="46.11277" lon="4.59352">
        <ele>371.39999389648</ele>
        <time>2019-08-27T13:17:28.000Z</time>
      </trkpt>
      <trkpt lat="46.11282" lon="4.59338">
        <ele>371.60000610352</ele>
        <time>2019-08-27T13:17:31.000Z</time>
      </trkpt>
      <trkpt lat="46.11287" lon="4.59319">
        <ele>369.79998779297</ele>
        <time>2019-08-27T13:17:35.000Z</time>
      </trkpt>
      <trkpt lat="46.11294" lon="4.59301">
        <ele>368.39999389648</ele>
        <time>2019-08-27T13:17:39.000Z</time>
      </trkpt>
      <trkpt lat="46.11295" lon="4.59297">
        <ele>368</ele>
        <time>2019-08-27T13:17:40.000Z</time>
      </trkpt>
      <trkpt lat="46.11309" lon="4.59273">
        <ele>368.20001220703</ele>
        <time>2019-08-27T13:17:46.000Z</time>
      </trkpt>
      <trkpt lat="46.11312" lon="4.5927">
        <ele>368.39999389648</ele>
        <time>2019-08-27T13:17:47.000Z</time>
      </trkpt>
      <trkpt lat="46.11321" lon="4.59258">
        <ele>369.20001220703</ele>
        <time>2019-08-27T13:17:50.000Z</time>
      </trkpt>
      <trkpt lat="46.11327" lon="4.59249">
        <ele>369.79998779297</ele>
        <time>2019-08-27T13:17:52.000Z</time>
      </trkpt>
      <trkpt lat="46.1135" lon="4.59214">
        <ele>369.79998779297</ele>
        <time>2019-08-27T13:17:58.000Z</time>
      </trkpt>
      <trkpt lat="46.11354" lon="4.59208">
        <ele>369.60000610352</ele>
        <time>2019-08-27T13:17:59.000Z</time>
      </trkpt>
      <trkpt lat="46.11374" lon="4.59169">
        <ele>371</ele>
        <time>2019-08-27T13:18:04.000Z</time>
      </trkpt>
      <trkpt lat="46.11383" lon="4.59153">
        <ele>369.39999389648</ele>
        <time>2019-08-27T13:18:06.000Z</time>
      </trkpt>
      <trkpt lat="46.11387" lon="4.59144">
        <ele>368.39999389648</ele>
        <time>2019-08-27T13:18:07.000Z</time>
      </trkpt>
      <trkpt lat="46.11402" lon="4.59118">
        <ele>366.39999389648</ele>
        <time>2019-08-27T13:18:10.000Z</time>
      </trkpt>
      <trkpt lat="46.11412" lon="4.591">
        <ele>369</ele>
        <time>2019-08-27T13:18:12.000Z</time>
      </trkpt>
      <trkpt lat="46.11431" lon="4.59061">
        <ele>373.39999389648</ele>
        <time>2019-08-27T13:18:16.000Z</time>
      </trkpt>
      <trkpt lat="46.11431" lon="4.59049">
        <ele>373.39999389648</ele>
        <time>2019-08-27T13:18:17.000Z</time>
      </trkpt>
      <trkpt lat="46.11419" lon="4.59032">
        <ele>372.60000610352</ele>
        <time>2019-08-27T13:18:19.000Z</time>
      </trkpt>
      <trkpt lat="46.11404" lon="4.5903">
        <ele>371.20001220703</ele>
        <time>2019-08-27T13:18:21.000Z</time>
      </trkpt>
      <trkpt lat="46.11396" lon="4.59031">
        <ele>370.20001220703</ele>
        <time>2019-08-27T13:18:22.000Z</time>
      </trkpt>
      <trkpt lat="46.11382" lon="4.5903">
        <ele>368.60000610352</ele>
        <time>2019-08-27T13:18:24.000Z</time>
      </trkpt>
      <trkpt lat="46.11376" lon="4.59029">
        <ele>368.20001220703</ele>
        <time>2019-08-27T13:18:25.000Z</time>
      </trkpt>
      <trkpt lat="46.11369" lon="4.59026">
        <ele>367.79998779297</ele>
        <time>2019-08-27T13:18:26.000Z</time>
      </trkpt>
      <trkpt lat="46.11363" lon="4.59022">
        <ele>368</ele>
        <time>2019-08-27T13:18:27.000Z</time>
      </trkpt>
      <trkpt lat="46.11346" lon="4.59008">
        <ele>368.20001220703</ele>
        <time>2019-08-27T13:18:30.000Z</time>
      </trkpt>
      <trkpt lat="46.11341" lon="4.59003">
        <ele>368.60000610352</ele>
        <time>2019-08-27T13:18:31.000Z</time>
      </trkpt>
      <trkpt lat="46.11313" lon="4.5898">
        <ele>369.20001220703</ele>
        <time>2019-08-27T13:18:36.000Z</time>
      </trkpt>
      <trkpt lat="46.11298" lon="4.58966">
        <ele>370</ele>
        <time>2019-08-27T13:18:39.000Z</time>
      </trkpt>
      <trkpt lat="46.11268" lon="4.58942">
        <ele>370.79998779297</ele>
        <time>2019-08-27T13:18:45.000Z</time>
      </trkpt>
      <trkpt lat="46.11264" lon="4.58938">
        <ele>371</ele>
        <time>2019-08-27T13:18:46.000Z</time>
      </trkpt>
      <trkpt lat="46.11251" lon="4.58926">
        <ele>371.20001220703</ele>
        <time>2019-08-27T13:18:49.000Z</time>
      </trkpt>
      <trkpt lat="46.11233" lon="4.58913">
        <ele>371.20001220703</ele>
        <time>2019-08-27T13:18:53.000Z</time>
      </trkpt>
      <trkpt lat="46.11217" lon="4.58898">
        <ele>370.79998779297</ele>
        <time>2019-08-27T13:18:57.000Z</time>
      </trkpt>
      <trkpt lat="46.11205" lon="4.58887">
        <ele>370.20001220703</ele>
        <time>2019-08-27T13:19:00.000Z</time>
      </trkpt>
      <trkpt lat="46.11201" lon="4.58883">
        <ele>370.20001220703</ele>
        <time>2019-08-27T13:19:01.000Z</time>
      </trkpt>
      <trkpt lat="46.11194" lon="4.58875">
        <ele>370</ele>
        <time>2019-08-27T13:19:03.000Z</time>
      </trkpt>
      <trkpt lat="46.11188" lon="4.58866">
        <ele>369.79998779297</ele>
        <time>2019-08-27T13:19:05.000Z</time>
      </trkpt>
      <trkpt lat="46.11186" lon="4.5886">
        <ele>369.79998779297</ele>
        <time>2019-08-27T13:19:06.000Z</time>
      </trkpt>
      <trkpt lat="46.1118" lon="4.58839">
        <ele>369.60000610352</ele>
        <time>2019-08-27T13:19:09.000Z</time>
      </trkpt>
      <trkpt lat="46.1117" lon="4.58779">
        <ele>370</ele>
        <time>2019-08-27T13:19:17.000Z</time>
      </trkpt>
      <trkpt lat="46.11161" lon="4.5872">
        <ele>373</ele>
        <time>2019-08-27T13:19:25.000Z</time>
      </trkpt>
      <trkpt lat="46.1116" lon="4.58714">
        <ele>373.20001220703</ele>
        <time>2019-08-27T13:19:26.000Z</time>
      </trkpt>
      <trkpt lat="46.11153" lon="4.58674">
        <ele>374.79998779297</ele>
        <time>2019-08-27T13:19:32.000Z</time>
      </trkpt>
      <trkpt lat="46.1115" lon="4.58655">
        <ele>375.60000610352</ele>
        <time>2019-08-27T13:19:35.000Z</time>
      </trkpt>
      <trkpt lat="46.11147" lon="4.58637">
        <ele>376.20001220703</ele>
        <time>2019-08-27T13:19:38.000Z</time>
      </trkpt>
      <trkpt lat="46.11146" lon="4.58631">
        <ele>376.39999389648</ele>
        <time>2019-08-27T13:19:39.000Z</time>
      </trkpt>
      <trkpt lat="46.11143" lon="4.58615">
        <ele>377.20001220703</ele>
        <time>2019-08-27T13:19:42.000Z</time>
      </trkpt>
      <trkpt lat="46.11142" lon="4.58609">
        <ele>377.20001220703</ele>
        <time>2019-08-27T13:19:43.000Z</time>
      </trkpt>
      <trkpt lat="46.11139" lon="4.58571">
        <ele>378.20001220703</ele>
        <time>2019-08-27T13:19:50.000Z</time>
      </trkpt>
      <trkpt lat="46.11138" lon="4.58543">
        <ele>379.20001220703</ele>
        <time>2019-08-27T13:19:55.000Z</time>
      </trkpt>
      <trkpt lat="46.11138" lon="4.58521">
        <ele>379.39999389648</ele>
        <time>2019-08-27T13:19:59.000Z</time>
      </trkpt>
      <trkpt lat="46.11137" lon="4.58504">
        <ele>379.20001220703</ele>
        <time>2019-08-27T13:20:02.000Z</time>
      </trkpt>
      <trkpt lat="46.11137" lon="4.58472">
        <ele>379.20001220703</ele>
        <time>2019-08-27T13:20:08.000Z</time>
      </trkpt>
      <trkpt lat="46.11137" lon="4.58462">
        <ele>379.20001220703</ele>
        <time>2019-08-27T13:20:10.000Z</time>
      </trkpt>
      <trkpt lat="46.11139" lon="4.58434">
        <ele>378.39999389648</ele>
        <time>2019-08-27T13:20:15.000Z</time>
      </trkpt>
      <trkpt lat="46.11141" lon="4.58417">
        <ele>377.39999389648</ele>
        <time>2019-08-27T13:20:18.000Z</time>
      </trkpt>
      <trkpt lat="46.11144" lon="4.58395">
        <ele>376.39999389648</ele>
        <time>2019-08-27T13:20:22.000Z</time>
      </trkpt>
      <trkpt lat="46.11153" lon="4.58361">
        <ele>375.20001220703</ele>
        <time>2019-08-27T13:20:28.000Z</time>
      </trkpt>
      <trkpt lat="46.11155" lon="4.58355">
        <ele>375.39999389648</ele>
        <time>2019-08-27T13:20:29.000Z</time>
      </trkpt>
      <trkpt lat="46.11161" lon="4.58346">
        <ele>375.79998779297</ele>
        <time>2019-08-27T13:20:31.000Z</time>
      </trkpt>
      <trkpt lat="46.11176" lon="4.58328">
        <ele>377.39999389648</ele>
        <time>2019-08-27T13:20:35.000Z</time>
      </trkpt>
      <trkpt lat="46.11192" lon="4.58311">
        <ele>379.39999389648</ele>
        <time>2019-08-27T13:20:39.000Z</time>
      </trkpt>
      <trkpt lat="46.11202" lon="4.58295">
        <ele>380.39999389648</ele>
        <time>2019-08-27T13:20:42.000Z</time>
      </trkpt>
      <trkpt lat="46.11208" lon="4.58282">
        <ele>380.79998779297</ele>
        <time>2019-08-27T13:20:44.000Z</time>
      </trkpt>
      <trkpt lat="46.11214" lon="4.58259">
        <ele>382.79998779297</ele>
        <time>2019-08-27T13:20:47.000Z</time>
      </trkpt>
      <trkpt lat="46.11215" lon="4.58228">
        <ele>385.20001220703</ele>
        <time>2019-08-27T13:20:51.000Z</time>
      </trkpt>
      <trkpt lat="46.11214" lon="4.5822">
        <ele>385.60000610352</ele>
        <time>2019-08-27T13:20:52.000Z</time>
      </trkpt>
      <trkpt lat="46.11207" lon="4.58169">
        <ele>387.39999389648</ele>
        <time>2019-08-27T13:20:59.000Z</time>
      </trkpt>
      <trkpt lat="46.11197" lon="4.58115">
        <ele>390.39999389648</ele>
        <time>2019-08-27T13:21:07.000Z</time>
      </trkpt>
      <trkpt lat="46.11194" lon="4.58101">
        <ele>389.60000610352</ele>
        <time>2019-08-27T13:21:09.000Z</time>
      </trkpt>
      <trkpt lat="46.11187" lon="4.58075">
        <ele>388</ele>
        <time>2019-08-27T13:21:13.000Z</time>
      </trkpt>
      <trkpt lat="46.11181" lon="4.58056">
        <ele>387.60000610352</ele>
        <time>2019-08-27T13:21:16.000Z</time>
      </trkpt>
      <trkpt lat="46.11177" lon="4.58028">
        <ele>387</ele>
        <time>2019-08-27T13:21:20.000Z</time>
      </trkpt>
      <trkpt lat="46.11177" lon="4.58021">
        <ele>386.79998779297</ele>
        <time>2019-08-27T13:21:21.000Z</time>
      </trkpt>
      <trkpt lat="46.11178" lon="4.57993">
        <ele>386.39999389648</ele>
        <time>2019-08-27T13:21:25.000Z</time>
      </trkpt>
      <trkpt lat="46.11179" lon="4.57985">
        <ele>386.39999389648</ele>
        <time>2019-08-27T13:21:26.000Z</time>
      </trkpt>
      <trkpt lat="46.11187" lon="4.57931">
        <ele>386.60000610352</ele>
        <time>2019-08-27T13:21:33.000Z</time>
      </trkpt>
      <trkpt lat="46.11197" lon="4.57868">
        <ele>384.79998779297</ele>
        <time>2019-08-27T13:21:40.000Z</time>
      </trkpt>
      <trkpt lat="46.11207" lon="4.57807">
        <ele>382.39999389648</ele>
        <time>2019-08-27T13:21:46.000Z</time>
      </trkpt>
      <trkpt lat="46.11213" lon="4.57777">
        <ele>381.39999389648</ele>
        <time>2019-08-27T13:21:49.000Z</time>
      </trkpt>
      <trkpt lat="46.11223" lon="4.57737">
        <ele>378.60000610352</ele>
        <time>2019-08-27T13:21:53.000Z</time>
      </trkpt>
      <trkpt lat="46.11241" lon="4.57685">
        <ele>377.79998779297</ele>
        <time>2019-08-27T13:21:58.000Z</time>
      </trkpt>
      <trkpt lat="46.11245" lon="4.57675">
        <ele>378.60000610352</ele>
        <time>2019-08-27T13:21:59.000Z</time>
      </trkpt>
      <trkpt lat="46.11252" lon="4.57653">
        <ele>380.20001220703</ele>
        <time>2019-08-27T13:22:01.000Z</time>
      </trkpt>
      <trkpt lat="46.11259" lon="4.57631">
        <ele>381.39999389648</ele>
        <time>2019-08-27T13:22:03.000Z</time>
      </trkpt>
      <trkpt lat="46.1126" lon="4.57619">
        <ele>381.60000610352</ele>
        <time>2019-08-27T13:22:04.000Z</time>
      </trkpt>
      <trkpt lat="46.11262" lon="4.57575">
        <ele>381.20001220703</ele>
        <time>2019-08-27T13:22:08.000Z</time>
      </trkpt>
      <trkpt lat="46.11262" lon="4.57519">
        <ele>381.20001220703</ele>
        <time>2019-08-27T13:22:14.000Z</time>
      </trkpt>
      <trkpt lat="46.11262" lon="4.57462">
        <ele>380.39999389648</ele>
        <time>2019-08-27T13:22:20.000Z</time>
      </trkpt>
      <trkpt lat="46.11263" lon="4.57443">
        <ele>380.20001220703</ele>
        <time>2019-08-27T13:22:22.000Z</time>
      </trkpt>
      <trkpt lat="46.11266" lon="4.57425">
        <ele>380.39999389648</ele>
        <time>2019-08-27T13:22:24.000Z</time>
      </trkpt>
      <trkpt lat="46.11267" lon="4.57416">
        <ele>380.60000610352</ele>
        <time>2019-08-27T13:22:25.000Z</time>
      </trkpt>
      <trkpt lat="46.1128" lon="4.57363">
        <ele>382.79998779297</ele>
        <time>2019-08-27T13:22:32.000Z</time>
      </trkpt>
      <trkpt lat="46.11289" lon="4.57339">
        <ele>384.39999389648</ele>
        <time>2019-08-27T13:22:36.000Z</time>
      </trkpt>
      <trkpt lat="46.11297" lon="4.57315">
        <ele>385.20001220703</ele>
        <time>2019-08-27T13:22:40.000Z</time>
      </trkpt>
      <trkpt lat="46.11303" lon="4.57299">
        <ele>386</ele>
        <time>2019-08-27T13:22:43.000Z</time>
      </trkpt>
      <trkpt lat="46.11309" lon="4.57284">
        <ele>386.60000610352</ele>
        <time>2019-08-27T13:22:46.000Z</time>
      </trkpt>
      <trkpt lat="46.11318" lon="4.57257">
        <ele>385.39999389648</ele>
        <time>2019-08-27T13:22:51.000Z</time>
      </trkpt>
      <trkpt lat="46.11321" lon="4.57246">
        <ele>385</ele>
        <time>2019-08-27T13:22:53.000Z</time>
      </trkpt>
      <trkpt lat="46.11323" lon="4.57241">
        <ele>384.79998779297</ele>
        <time>2019-08-27T13:22:54.000Z</time>
      </trkpt>
      <trkpt lat="46.11326" lon="4.57231">
        <ele>384.39999389648</ele>
        <time>2019-08-27T13:22:56.000Z</time>
      </trkpt>
      <trkpt lat="46.11336" lon="4.57206">
        <ele>384.20001220703</ele>
        <time>2019-08-27T13:23:01.000Z</time>
      </trkpt>
      <trkpt lat="46.1134" lon="4.57196">
        <ele>384.39999389648</ele>
        <time>2019-08-27T13:23:03.000Z</time>
      </trkpt>
      <trkpt lat="46.11346" lon="4.57182">
        <ele>384.39999389648</ele>
        <time>2019-08-27T13:23:06.000Z</time>
      </trkpt>
      <trkpt lat="46.1135" lon="4.57173">
        <ele>384.60000610352</ele>
        <time>2019-08-27T13:23:08.000Z</time>
      </trkpt>
      <trkpt lat="46.11355" lon="4.57165">
        <ele>384.79998779297</ele>
        <time>2019-08-27T13:23:10.000Z</time>
      </trkpt>
      <trkpt lat="46.11367" lon="4.57144">
        <ele>383.20001220703</ele>
        <time>2019-08-27T13:23:15.000Z</time>
      </trkpt>
      <trkpt lat="46.11372" lon="4.57137">
        <ele>382.79998779297</ele>
        <time>2019-08-27T13:23:17.000Z</time>
      </trkpt>
      <trkpt lat="46.11375" lon="4.57134">
        <ele>382.79998779297</ele>
        <time>2019-08-27T13:23:18.000Z</time>
      </trkpt>
      <trkpt lat="46.11393" lon="4.57119">
        <ele>383.20001220703</ele>
        <time>2019-08-27T13:23:24.000Z</time>
      </trkpt>
      <trkpt lat="46.11397" lon="4.57117">
        <ele>383.20001220703</ele>
        <time>2019-08-27T13:23:25.000Z</time>
      </trkpt>
      <trkpt lat="46.11413" lon="4.57108">
        <ele>384.20001220703</ele>
        <time>2019-08-27T13:23:30.000Z</time>
      </trkpt>
      <trkpt lat="46.11423" lon="4.57106">
        <ele>385</ele>
        <time>2019-08-27T13:23:33.000Z</time>
      </trkpt>
      <trkpt lat="46.11437" lon="4.57103">
        <ele>386.20001220703</ele>
        <time>2019-08-27T13:23:37.000Z</time>
      </trkpt>
      <trkpt lat="46.11447" lon="4.57103">
        <ele>387.20001220703</ele>
        <time>2019-08-27T13:23:40.000Z</time>
      </trkpt>
      <trkpt lat="46.1145" lon="4.57102">
        <ele>387.60000610352</ele>
        <time>2019-08-27T13:23:41.000Z</time>
      </trkpt>
      <trkpt lat="46.11469" lon="4.57104">
        <ele>390</ele>
        <time>2019-08-27T13:23:47.000Z</time>
      </trkpt>
      <trkpt lat="46.11472" lon="4.57105">
        <ele>390.60000610352</ele>
        <time>2019-08-27T13:23:48.000Z</time>
      </trkpt>
      <trkpt lat="46.11482" lon="4.57106">
        <ele>392.20001220703</ele>
        <time>2019-08-27T13:23:51.000Z</time>
      </trkpt>
      <trkpt lat="46.11486" lon="4.57107">
        <ele>392.60000610352</ele>
        <time>2019-08-27T13:23:52.000Z</time>
      </trkpt>
      <trkpt lat="46.11496" lon="4.57109">
        <ele>394.39999389648</ele>
        <time>2019-08-27T13:23:55.000Z</time>
      </trkpt>
      <trkpt lat="46.11512" lon="4.57113">
        <ele>397.20001220703</ele>
        <time>2019-08-27T13:24:00.000Z</time>
      </trkpt>
      <trkpt lat="46.11519" lon="4.57112">
        <ele>398.20001220703</ele>
        <time>2019-08-27T13:24:02.000Z</time>
      </trkpt>
      <trkpt lat="46.11532" lon="4.57107">
        <ele>399.79998779297</ele>
        <time>2019-08-27T13:24:06.000Z</time>
      </trkpt>
      <trkpt lat="46.11542" lon="4.57093">
        <ele>401</ele>
        <time>2019-08-27T13:24:10.000Z</time>
      </trkpt>
      <trkpt lat="46.11543" lon="4.57089">
        <ele>401.60000610352</ele>
        <time>2019-08-27T13:24:11.000Z</time>
      </trkpt>
      <trkpt lat="46.11547" lon="4.5706">
        <ele>403.20001220703</ele>
        <time>2019-08-27T13:24:17.000Z</time>
      </trkpt>
      <trkpt lat="46.11549" lon="4.57041">
        <ele>404.20001220703</ele>
        <time>2019-08-27T13:24:21.000Z</time>
      </trkpt>
      <trkpt lat="46.11551" lon="4.57027">
        <ele>404.39999389648</ele>
        <time>2019-08-27T13:24:24.000Z</time>
      </trkpt>
      <trkpt lat="46.11551" lon="4.57018">
        <ele>404.39999389648</ele>
        <time>2019-08-27T13:24:26.000Z</time>
      </trkpt>
      <trkpt lat="46.11553" lon="4.57">
        <ele>404.60000610352</ele>
        <time>2019-08-27T13:24:30.000Z</time>
      </trkpt>
      <trkpt lat="46.11555" lon="4.56974">
        <ele>404.79998779297</ele>
        <time>2019-08-27T13:24:36.000Z</time>
      </trkpt>
      <trkpt lat="46.11555" lon="4.56969">
        <ele>405</ele>
        <time>2019-08-27T13:24:37.000Z</time>
      </trkpt>
      <trkpt lat="46.11559" lon="4.56938">
        <ele>405.20001220703</ele>
        <time>2019-08-27T13:24:44.000Z</time>
      </trkpt>
      <trkpt lat="46.11559" lon="4.56934">
        <ele>405.20001220703</ele>
        <time>2019-08-27T13:24:45.000Z</time>
      </trkpt>
      <trkpt lat="46.11563" lon="4.56912">
        <ele>405.39999389648</ele>
        <time>2019-08-27T13:24:50.000Z</time>
      </trkpt>
      <trkpt lat="46.11564" lon="4.56903">
        <ele>405.39999389648</ele>
        <time>2019-08-27T13:24:52.000Z</time>
      </trkpt>
      <trkpt lat="46.11569" lon="4.56882">
        <ele>406.20001220703</ele>
        <time>2019-08-27T13:24:57.000Z</time>
      </trkpt>
      <trkpt lat="46.11572" lon="4.56874">
        <ele>406.60000610352</ele>
        <time>2019-08-27T13:24:59.000Z</time>
      </trkpt>
      <trkpt lat="46.11574" lon="4.56866">
        <ele>407.20001220703</ele>
        <time>2019-08-27T13:25:01.000Z</time>
      </trkpt>
      <trkpt lat="46.1158" lon="4.56849">
        <ele>407.79998779297</ele>
        <time>2019-08-27T13:25:05.000Z</time>
      </trkpt>
      <trkpt lat="46.11585" lon="4.56837">
        <ele>408.39999389648</ele>
        <time>2019-08-27T13:25:08.000Z</time>
      </trkpt>
      <trkpt lat="46.1159" lon="4.56821">
        <ele>409.20001220703</ele>
        <time>2019-08-27T13:25:12.000Z</time>
      </trkpt>
      <trkpt lat="46.11594" lon="4.56808">
        <ele>409.60000610352</ele>
        <time>2019-08-27T13:25:15.000Z</time>
      </trkpt>
      <trkpt lat="46.11607" lon="4.56769">
        <ele>411.20001220703</ele>
        <time>2019-08-27T13:25:24.000Z</time>
      </trkpt>
      <trkpt lat="46.11612" lon="4.56756">
        <ele>411.60000610352</ele>
        <time>2019-08-27T13:25:27.000Z</time>
      </trkpt>
      <trkpt lat="46.11622" lon="4.56726">
        <ele>410.20001220703</ele>
        <time>2019-08-27T13:25:34.000Z</time>
      </trkpt>
      <trkpt lat="46.11639" lon="4.56689">
        <ele>409.60000610352</ele>
        <time>2019-08-27T13:25:43.000Z</time>
      </trkpt>
      <trkpt lat="46.11641" lon="4.56685">
        <ele>409.60000610352</ele>
        <time>2019-08-27T13:25:44.000Z</time>
      </trkpt>
      <trkpt lat="46.11659" lon="4.56661">
        <ele>410.79998779297</ele>
        <time>2019-08-27T13:25:51.000Z</time>
      </trkpt>
      <trkpt lat="46.11662" lon="4.56658">
        <ele>411.20001220703</ele>
        <time>2019-08-27T13:25:52.000Z</time>
      </trkpt>
      <trkpt lat="46.11672" lon="4.56645">
        <ele>412.20001220703</ele>
        <time>2019-08-27T13:25:56.000Z</time>
      </trkpt>
      <trkpt lat="46.11677" lon="4.56639">
        <ele>412.39999389648</ele>
        <time>2019-08-27T13:25:58.000Z</time>
      </trkpt>
      <trkpt lat="46.1169" lon="4.56624">
        <ele>413.39999389648</ele>
        <time>2019-08-27T13:26:03.000Z</time>
      </trkpt>
      <trkpt lat="46.11697" lon="4.56616">
        <ele>414</ele>
        <time>2019-08-27T13:26:06.000Z</time>
      </trkpt>
      <trkpt lat="46.11701" lon="4.56611">
        <ele>414.79998779297</ele>
        <time>2019-08-27T13:26:08.000Z</time>
      </trkpt>
      <trkpt lat="46.11715" lon="4.56593">
        <ele>416.39999389648</ele>
        <time>2019-08-27T13:26:14.000Z</time>
      </trkpt>
      <trkpt lat="46.11728" lon="4.56579">
        <ele>416.60000610352</ele>
        <time>2019-08-27T13:26:19.000Z</time>
      </trkpt>
      <trkpt lat="46.11738" lon="4.56568">
        <ele>416.79998779297</ele>
        <time>2019-08-27T13:26:23.000Z</time>
      </trkpt>
      <trkpt lat="46.11746" lon="4.56559">
        <ele>417.39999389648</ele>
        <time>2019-08-27T13:26:26.000Z</time>
      </trkpt>
      <trkpt lat="46.11756" lon="4.56549">
        <ele>418.20001220703</ele>
        <time>2019-08-27T13:26:30.000Z</time>
      </trkpt>
      <trkpt lat="46.11764" lon="4.56541">
        <ele>418.79998779297</ele>
        <time>2019-08-27T13:26:33.000Z</time>
      </trkpt>
      <trkpt lat="46.11777" lon="4.56529">
        <ele>420.20001220703</ele>
        <time>2019-08-27T13:26:38.000Z</time>
      </trkpt>
      <trkpt lat="46.11785" lon="4.56521">
        <ele>421</ele>
        <time>2019-08-27T13:26:41.000Z</time>
      </trkpt>
      <trkpt lat="46.11801" lon="4.56505">
        <ele>423</ele>
        <time>2019-08-27T13:26:47.000Z</time>
      </trkpt>
      <trkpt lat="46.11803" lon="4.56503">
        <ele>423.20001220703</ele>
        <time>2019-08-27T13:26:48.000Z</time>
      </trkpt>
      <trkpt lat="46.11813" lon="4.5649">
        <ele>424.39999389648</ele>
        <time>2019-08-27T13:26:52.000Z</time>
      </trkpt>
      <trkpt lat="46.11815" lon="4.56486">
        <ele>424.60000610352</ele>
        <time>2019-08-27T13:26:53.000Z</time>
      </trkpt>
      <trkpt lat="46.11824" lon="4.56467">
        <ele>425.39999389648</ele>
        <time>2019-08-27T13:26:58.000Z</time>
      </trkpt>
      <trkpt lat="46.11827" lon="4.5646">
        <ele>425</ele>
        <time>2019-08-27T13:27:00.000Z</time>
      </trkpt>
      <trkpt lat="46.11836" lon="4.56446">
        <ele>425</ele>
        <time>2019-08-27T13:27:04.000Z</time>
      </trkpt>
      <trkpt lat="46.11845" lon="4.56434">
        <ele>426.39999389648</ele>
        <time>2019-08-27T13:27:08.000Z</time>
      </trkpt>
      <trkpt lat="46.11848" lon="4.56431">
        <ele>426.79998779297</ele>
        <time>2019-08-27T13:27:09.000Z</time>
      </trkpt>
      <trkpt lat="46.1186" lon="4.56419">
        <ele>428.79998779297</ele>
        <time>2019-08-27T13:27:14.000Z</time>
      </trkpt>
      <trkpt lat="46.11868" lon="4.56412">
        <ele>430.20001220703</ele>
        <time>2019-08-27T13:27:17.000Z</time>
      </trkpt>
      <trkpt lat="46.11884" lon="4.56399">
        <ele>433.39999389648</ele>
        <time>2019-08-27T13:27:23.000Z</time>
      </trkpt>
      <trkpt lat="46.11892" lon="4.56391">
        <ele>435</ele>
        <time>2019-08-27T13:27:26.000Z</time>
      </trkpt>
      <trkpt lat="46.11908" lon="4.56376">
        <ele>437.79998779297</ele>
        <time>2019-08-27T13:27:32.000Z</time>
      </trkpt>
      <trkpt lat="46.11914" lon="4.56365">
        <ele>438.79998779297</ele>
        <time>2019-08-27T13:27:35.000Z</time>
      </trkpt>
      <trkpt lat="46.11915" lon="4.56356">
        <ele>440.20001220703</ele>
        <time>2019-08-27T13:27:37.000Z</time>
      </trkpt>
      <trkpt lat="46.11914" lon="4.56346">
        <ele>441.39999389648</ele>
        <time>2019-08-27T13:27:39.000Z</time>
      </trkpt>
      <trkpt lat="46.11903" lon="4.56328">
        <ele>442.39999389648</ele>
        <time>2019-08-27T13:27:44.000Z</time>
      </trkpt>
      <trkpt lat="46.11892" lon="4.56315">
        <ele>442.60000610352</ele>
        <time>2019-08-27T13:27:48.000Z</time>
      </trkpt>
      <trkpt lat="46.11885" lon="4.56306">
        <ele>441.60000610352</ele>
        <time>2019-08-27T13:27:51.000Z</time>
      </trkpt>
      <trkpt lat="46.11877" lon="4.56298">
        <ele>440.60000610352</ele>
        <time>2019-08-27T13:27:54.000Z</time>
      </trkpt>
      <trkpt lat="46.11868" lon="4.56285">
        <ele>439.39999389648</ele>
        <time>2019-08-27T13:27:58.000Z</time>
      </trkpt>
      <trkpt lat="46.11865" lon="4.56282">
        <ele>438.79998779297</ele>
        <time>2019-08-27T13:27:59.000Z</time>
      </trkpt>
      <trkpt lat="46.11858" lon="4.56262">
        <ele>436.20001220703</ele>
        <time>2019-08-27T13:28:04.000Z</time>
      </trkpt>
      <trkpt lat="46.11858" lon="4.56244">
        <ele>436.20001220703</ele>
        <time>2019-08-27T13:28:08.000Z</time>
      </trkpt>
      <trkpt lat="46.1186" lon="4.56235">
        <ele>437.20001220703</ele>
        <time>2019-08-27T13:28:10.000Z</time>
      </trkpt>
      <trkpt lat="46.11861" lon="4.56231">
        <ele>437.60000610352</ele>
        <time>2019-08-27T13:28:11.000Z</time>
      </trkpt>
      <trkpt lat="46.11871" lon="4.56198">
        <ele>442</ele>
        <time>2019-08-27T13:28:19.000Z</time>
      </trkpt>
      <trkpt lat="46.11872" lon="4.56194">
        <ele>442.39999389648</ele>
        <time>2019-08-27T13:28:20.000Z</time>
      </trkpt>
      <trkpt lat="46.11881" lon="4.56161">
        <ele>445</ele>
        <time>2019-08-27T13:28:28.000Z</time>
      </trkpt>
      <trkpt lat="46.11883" lon="4.56153">
        <ele>445.39999389648</ele>
        <time>2019-08-27T13:28:30.000Z</time>
      </trkpt>
      <trkpt lat="46.11888" lon="4.56136">
        <ele>446.60000610352</ele>
        <time>2019-08-27T13:28:34.000Z</time>
      </trkpt>
      <trkpt lat="46.1189" lon="4.56128">
        <ele>447</ele>
        <time>2019-08-27T13:28:36.000Z</time>
      </trkpt>
      <trkpt lat="46.11895" lon="4.56102">
        <ele>448.39999389648</ele>
        <time>2019-08-27T13:28:42.000Z</time>
      </trkpt>
      <trkpt lat="46.11897" lon="4.56088">
        <ele>448.79998779297</ele>
        <time>2019-08-27T13:28:45.000Z</time>
      </trkpt>
      <trkpt lat="46.11898" lon="4.56079">
        <ele>449</ele>
        <time>2019-08-27T13:28:47.000Z</time>
      </trkpt>
      <trkpt lat="46.11901" lon="4.56048">
        <ele>450</ele>
        <time>2019-08-27T13:28:54.000Z</time>
      </trkpt>
      <trkpt lat="46.11902" lon="4.56044">
        <ele>450</ele>
        <time>2019-08-27T13:28:55.000Z</time>
      </trkpt>
      <trkpt lat="46.11906" lon="4.56013">
        <ele>451.79998779297</ele>
        <time>2019-08-27T13:29:02.000Z</time>
      </trkpt>
      <trkpt lat="46.1191" lon="4.55992">
        <ele>453.60000610352</ele>
        <time>2019-08-27T13:29:07.000Z</time>
      </trkpt>
      <trkpt lat="46.11911" lon="4.55988">
        <ele>454</ele>
        <time>2019-08-27T13:29:08.000Z</time>
      </trkpt>
      <trkpt lat="46.11916" lon="4.55963">
        <ele>455.39999389648</ele>
        <time>2019-08-27T13:29:14.000Z</time>
      </trkpt>
      <trkpt lat="46.11918" lon="4.55954">
        <ele>455.60000610352</ele>
        <time>2019-08-27T13:29:16.000Z</time>
      </trkpt>
      <trkpt lat="46.11921" lon="4.55942">
        <ele>456.79998779297</ele>
        <time>2019-08-27T13:29:19.000Z</time>
      </trkpt>
      <trkpt lat="46.11927" lon="4.55911">
        <ele>459.79998779297</ele>
        <time>2019-08-27T13:29:26.000Z</time>
      </trkpt>
      <trkpt lat="46.11929" lon="4.55903">
        <ele>460.79998779297</ele>
        <time>2019-08-27T13:29:28.000Z</time>
      </trkpt>
      <trkpt lat="46.11933" lon="4.55882">
        <ele>459.60000610352</ele>
        <time>2019-08-27T13:29:33.000Z</time>
      </trkpt>
      <trkpt lat="46.11934" lon="4.55878">
        <ele>459.39999389648</ele>
        <time>2019-08-27T13:29:34.000Z</time>
      </trkpt>
      <trkpt lat="46.11939" lon="4.55853">
        <ele>460.20001220703</ele>
        <time>2019-08-27T13:29:40.000Z</time>
      </trkpt>
      <trkpt lat="46.1194" lon="4.55849">
        <ele>460.79998779297</ele>
        <time>2019-08-27T13:29:41.000Z</time>
      </trkpt>
      <trkpt lat="46.11942" lon="4.55836">
        <ele>462.20001220703</ele>
        <time>2019-08-27T13:29:44.000Z</time>
      </trkpt>
      <trkpt lat="46.11946" lon="4.55815">
        <ele>460.60000610352</ele>
        <time>2019-08-27T13:29:49.000Z</time>
      </trkpt>
      <trkpt lat="46.11951" lon="4.5579">
        <ele>458</ele>
        <time>2019-08-27T13:29:55.000Z</time>
      </trkpt>
      <trkpt lat="46.11955" lon="4.55774">
        <ele>458.20001220703</ele>
        <time>2019-08-27T13:29:59.000Z</time>
      </trkpt>
      <trkpt lat="46.11959" lon="4.55758">
        <ele>459.39999389648</ele>
        <time>2019-08-27T13:30:03.000Z</time>
      </trkpt>
      <trkpt lat="46.11962" lon="4.55741">
        <ele>460.39999389648</ele>
        <time>2019-08-27T13:30:07.000Z</time>
      </trkpt>
      <trkpt lat="46.11964" lon="4.55732">
        <ele>461</ele>
        <time>2019-08-27T13:30:09.000Z</time>
      </trkpt>
      <trkpt lat="46.11972" lon="4.55701">
        <ele>463</ele>
        <time>2019-08-27T13:30:16.000Z</time>
      </trkpt>
      <trkpt lat="46.11978" lon="4.5567">
        <ele>465.20001220703</ele>
        <time>2019-08-27T13:30:23.000Z</time>
      </trkpt>
      <trkpt lat="46.1198" lon="4.55662">
        <ele>466.39999389648</ele>
        <time>2019-08-27T13:30:25.000Z</time>
      </trkpt>
      <trkpt lat="46.11986" lon="4.55634">
        <ele>469.79998779297</ele>
        <time>2019-08-27T13:30:32.000Z</time>
      </trkpt>
      <trkpt lat="46.11991" lon="4.55606">
        <ele>472.39999389648</ele>
        <time>2019-08-27T13:30:39.000Z</time>
      </trkpt>
      <trkpt lat="46.11996" lon="4.55579">
        <ele>474</ele>
        <time>2019-08-27T13:30:46.000Z</time>
      </trkpt>
      <trkpt lat="46.11997" lon="4.55575">
        <ele>474.20001220703</ele>
        <time>2019-08-27T13:30:47.000Z</time>
      </trkpt>
      <trkpt lat="46.11999" lon="4.55567">
        <ele>474.79998779297</ele>
        <time>2019-08-27T13:30:49.000Z</time>
      </trkpt>
      <trkpt lat="46.12002" lon="4.55553">
        <ele>475.79998779297</ele>
        <time>2019-08-27T13:30:52.000Z</time>
      </trkpt>
      <trkpt lat="46.12003" lon="4.55549">
        <ele>476</ele>
        <time>2019-08-27T13:30:53.000Z</time>
      </trkpt>
      <trkpt lat="46.12007" lon="4.55522">
        <ele>478.20001220703</ele>
        <time>2019-08-27T13:30:59.000Z</time>
      </trkpt>
      <trkpt lat="46.12013" lon="4.55494">
        <ele>481</ele>
        <time>2019-08-27T13:31:05.000Z</time>
      </trkpt>
      <trkpt lat="46.12016" lon="4.55475">
        <ele>482.60000610352</ele>
        <time>2019-08-27T13:31:09.000Z</time>
      </trkpt>
      <trkpt lat="46.12017" lon="4.55455">
        <ele>483.79998779297</ele>
        <time>2019-08-27T13:31:13.000Z</time>
      </trkpt>
      <trkpt lat="46.12017" lon="4.55445">
        <ele>484.60000610352</ele>
        <time>2019-08-27T13:31:15.000Z</time>
      </trkpt>
      <trkpt lat="46.12015" lon="4.55426">
        <ele>485.79998779297</ele>
        <time>2019-08-27T13:31:19.000Z</time>
      </trkpt>
      <trkpt lat="46.12007" lon="4.55403">
        <ele>485.20001220703</ele>
        <time>2019-08-27T13:31:24.000Z</time>
      </trkpt>
      <trkpt lat="46.11997" lon="4.55394">
        <ele>483</ele>
        <time>2019-08-27T13:31:27.000Z</time>
      </trkpt>
      <trkpt lat="46.11989" lon="4.5539">
        <ele>480.60000610352</ele>
        <time>2019-08-27T13:31:29.000Z</time>
      </trkpt>
      <trkpt lat="46.1198" lon="4.55389">
        <ele>478</ele>
        <time>2019-08-27T13:31:31.000Z</time>
      </trkpt>
      <trkpt lat="46.11972" lon="4.55391">
        <ele>478.20001220703</ele>
        <time>2019-08-27T13:31:33.000Z</time>
      </trkpt>
      <trkpt lat="46.11957" lon="4.55406">
        <ele>481.20001220703</ele>
        <time>2019-08-27T13:31:38.000Z</time>
      </trkpt>
      <trkpt lat="46.11941" lon="4.55433">
        <ele>481.79998779297</ele>
        <time>2019-08-27T13:31:45.000Z</time>
      </trkpt>
      <trkpt lat="46.11929" lon="4.55454">
        <ele>481.39999389648</ele>
        <time>2019-08-27T13:31:51.000Z</time>
      </trkpt>
      <trkpt lat="46.1192" lon="4.55477">
        <ele>482.39999389648</ele>
        <time>2019-08-27T13:31:58.000Z</time>
      </trkpt>
      <trkpt lat="46.11911" lon="4.55496">
        <ele>480.60000610352</ele>
        <time>2019-08-27T13:32:04.000Z</time>
      </trkpt>
      <trkpt lat="46.11902" lon="4.55524">
        <ele>477.60000610352</ele>
        <time>2019-08-27T13:32:11.000Z</time>
      </trkpt>
      <trkpt lat="46.119" lon="4.55527">
        <ele>477.20001220703</ele>
        <time>2019-08-27T13:32:12.000Z</time>
      </trkpt>
      <trkpt lat="46.11891" lon="4.55557">
        <ele>475.79998779297</ele>
        <time>2019-08-27T13:32:20.000Z</time>
      </trkpt>
      <trkpt lat="46.1188" lon="4.55585">
        <ele>476.60000610352</ele>
        <time>2019-08-27T13:32:28.000Z</time>
      </trkpt>
      <trkpt lat="46.11875" lon="4.55599">
        <ele>477</ele>
        <time>2019-08-27T13:32:32.000Z</time>
      </trkpt>
      <trkpt lat="46.11874" lon="4.55602">
        <ele>477.20001220703</ele>
        <time>2019-08-27T13:32:33.000Z</time>
      </trkpt>
      <trkpt lat="46.11868" lon="4.5562">
        <ele>477.39999389648</ele>
        <time>2019-08-27T13:32:38.000Z</time>
      </trkpt>
      <trkpt lat="46.11867" lon="4.55624">
        <ele>477.39999389648</ele>
        <time>2019-08-27T13:32:39.000Z</time>
      </trkpt>
      <trkpt lat="46.11863" lon="4.55638">
        <ele>477.60000610352</ele>
        <time>2019-08-27T13:32:43.000Z</time>
      </trkpt>
      <trkpt lat="46.11861" lon="4.55645">
        <ele>477.79998779297</ele>
        <time>2019-08-27T13:32:45.000Z</time>
      </trkpt>
      <trkpt lat="46.1186" lon="4.55649">
        <ele>477.79998779297</ele>
        <time>2019-08-27T13:32:46.000Z</time>
      </trkpt>
      <trkpt lat="46.11859" lon="4.55653">
        <ele>477.79998779297</ele>
        <time>2019-08-27T13:32:47.000Z</time>
      </trkpt>
      <trkpt lat="46.11856" lon="4.55663">
        <ele>478</ele>
        <time>2019-08-27T13:32:50.000Z</time>
      </trkpt>
      <trkpt lat="46.11853" lon="4.5567">
        <ele>478.20001220703</ele>
        <time>2019-08-27T13:32:52.000Z</time>
      </trkpt>
      <trkpt lat="46.11851" lon="4.55678">
        <ele>478.39999389648</ele>
        <time>2019-08-27T13:32:54.000Z</time>
      </trkpt>
      <trkpt lat="46.11847" lon="4.55689">
        <ele>478.60000610352</ele>
        <time>2019-08-27T13:32:57.000Z</time>
      </trkpt>
      <trkpt lat="46.11843" lon="4.55702">
        <ele>479</ele>
        <time>2019-08-27T13:33:01.000Z</time>
      </trkpt>
      <trkpt lat="46.11839" lon="4.55712">
        <ele>479.79998779297</ele>
        <time>2019-08-27T13:33:04.000Z</time>
      </trkpt>
      <trkpt lat="46.11833" lon="4.55721">
        <ele>480.79998779297</ele>
        <time>2019-08-27T13:33:07.000Z</time>
      </trkpt>
      <trkpt lat="46.11831" lon="4.55724">
        <ele>481.20001220703</ele>
        <time>2019-08-27T13:33:08.000Z</time>
      </trkpt>
      <trkpt lat="46.11828" lon="4.55729">
        <ele>481.39999389648</ele>
        <time>2019-08-27T13:33:10.000Z</time>
      </trkpt>
      <trkpt lat="46.1182" lon="4.55738">
        <ele>482.39999389648</ele>
        <time>2019-08-27T13:33:14.000Z</time>
      </trkpt>
      <trkpt lat="46.11801" lon="4.55743">
        <ele>484.79998779297</ele>
        <time>2019-08-27T13:33:21.000Z</time>
      </trkpt>
      <trkpt lat="46.11793" lon="4.5574">
        <ele>486</ele>
        <time>2019-08-27T13:33:24.000Z</time>
      </trkpt>
      <trkpt lat="46.11786" lon="4.55735">
        <ele>487.39999389648</ele>
        <time>2019-08-27T13:33:27.000Z</time>
      </trkpt>
      <trkpt lat="46.11784" lon="4.55734">
        <ele>487.79998779297</ele>
        <time>2019-08-27T13:33:28.000Z</time>
      </trkpt>
      <trkpt lat="46.11771" lon="4.55723">
        <ele>490.60000610352</ele>
        <time>2019-08-27T13:33:34.000Z</time>
      </trkpt>
      <trkpt lat="46.11766" lon="4.55719">
        <ele>491.60000610352</ele>
        <time>2019-08-27T13:33:36.000Z</time>
      </trkpt>
      <trkpt lat="46.11755" lon="4.55709">
        <ele>494.20001220703</ele>
        <time>2019-08-27T13:33:41.000Z</time>
      </trkpt>
      <trkpt lat="46.11742" lon="4.55697">
        <ele>497.39999389648</ele>
        <time>2019-08-27T13:33:47.000Z</time>
      </trkpt>
      <trkpt lat="46.11737" lon="4.55693">
        <ele>498.79998779297</ele>
        <time>2019-08-27T13:33:49.000Z</time>
      </trkpt>
      <trkpt lat="46.11726" lon="4.55683">
        <ele>501.60000610352</ele>
        <time>2019-08-27T13:33:54.000Z</time>
      </trkpt>
      <trkpt lat="46.11721" lon="4.55679">
        <ele>502.20001220703</ele>
        <time>2019-08-27T13:33:56.000Z</time>
      </trkpt>
      <trkpt lat="46.11709" lon="4.55668">
        <ele>504.39999389648</ele>
        <time>2019-08-27T13:34:01.000Z</time>
      </trkpt>
      <trkpt lat="46.11705" lon="4.55664">
        <ele>505</ele>
        <time>2019-08-27T13:34:03.000Z</time>
      </trkpt>
      <trkpt lat="46.11695" lon="4.55655">
        <ele>506.60000610352</ele>
        <time>2019-08-27T13:34:07.000Z</time>
      </trkpt>
      <trkpt lat="46.11689" lon="4.55648">
        <ele>508</ele>
        <time>2019-08-27T13:34:10.000Z</time>
      </trkpt>
      <trkpt lat="46.11683" lon="4.55642">
        <ele>509</ele>
        <time>2019-08-27T13:34:13.000Z</time>
      </trkpt>
      <trkpt lat="46.11672" lon="4.5563">
        <ele>511</ele>
        <time>2019-08-27T13:34:18.000Z</time>
      </trkpt>
      <trkpt lat="46.11656" lon="4.55614">
        <ele>514</ele>
        <time>2019-08-27T13:34:25.000Z</time>
      </trkpt>
      <trkpt lat="46.11643" lon="4.556">
        <ele>516.59997558594</ele>
        <time>2019-08-27T13:34:31.000Z</time>
      </trkpt>
      <trkpt lat="46.11624" lon="4.55578">
        <ele>517.20001220703</ele>
        <time>2019-08-27T13:34:40.000Z</time>
      </trkpt>
      <trkpt lat="46.11613" lon="4.55567">
        <ele>517.20001220703</ele>
        <time>2019-08-27T13:34:45.000Z</time>
      </trkpt>
      <trkpt lat="46.1161" lon="4.55565">
        <ele>517.20001220703</ele>
        <time>2019-08-27T13:34:46.000Z</time>
      </trkpt>
      <trkpt lat="46.11597" lon="4.55551">
        <ele>517.59997558594</ele>
        <time>2019-08-27T13:34:52.000Z</time>
      </trkpt>
      <trkpt lat="46.11591" lon="4.55543">
        <ele>518</ele>
        <time>2019-08-27T13:34:55.000Z</time>
      </trkpt>
      <trkpt lat="46.11585" lon="4.55532">
        <ele>519</ele>
        <time>2019-08-27T13:34:58.000Z</time>
      </trkpt>
      <trkpt lat="46.11582" lon="4.55529">
        <ele>519.20001220703</ele>
        <time>2019-08-27T13:34:59.000Z</time>
      </trkpt>
      <trkpt lat="46.11575" lon="4.55517">
        <ele>520</ele>
        <time>2019-08-27T13:35:03.000Z</time>
      </trkpt>
      <trkpt lat="46.11571" lon="4.55512">
        <ele>520.40002441406</ele>
        <time>2019-08-27T13:35:05.000Z</time>
      </trkpt>
      <trkpt lat="46.11569" lon="4.55509">
        <ele>520.59997558594</ele>
        <time>2019-08-27T13:35:06.000Z</time>
      </trkpt>
      <trkpt lat="46.11564" lon="4.55499">
        <ele>521.40002441406</ele>
        <time>2019-08-27T13:35:09.000Z</time>
      </trkpt>
      <trkpt lat="46.11561" lon="4.55493">
        <ele>522</ele>
        <time>2019-08-27T13:35:11.000Z</time>
      </trkpt>
      <trkpt lat="46.11558" lon="4.55488">
        <ele>522.59997558594</ele>
        <time>2019-08-27T13:35:13.000Z</time>
      </trkpt>
      <trkpt lat="46.11552" lon="4.5548">
        <ele>523</ele>
        <time>2019-08-27T13:35:16.000Z</time>
      </trkpt>
      <trkpt lat="46.11546" lon="4.55473">
        <ele>523.40002441406</ele>
        <time>2019-08-27T13:35:19.000Z</time>
      </trkpt>
      <trkpt lat="46.11535" lon="4.55466">
        <ele>523.20001220703</ele>
        <time>2019-08-27T13:35:23.000Z</time>
      </trkpt>
      <trkpt lat="46.1153" lon="4.55464">
        <ele>522.79998779297</ele>
        <time>2019-08-27T13:35:25.000Z</time>
      </trkpt>
      <trkpt lat="46.11524" lon="4.55461">
        <ele>522.40002441406</ele>
        <time>2019-08-27T13:35:27.000Z</time>
      </trkpt>
      <trkpt lat="46.11507" lon="4.55453">
        <ele>521.20001220703</ele>
        <time>2019-08-27T13:35:33.000Z</time>
      </trkpt>
      <trkpt lat="46.11501" lon="4.55451">
        <ele>520.79998779297</ele>
        <time>2019-08-27T13:35:35.000Z</time>
      </trkpt>
      <trkpt lat="46.11494" lon="4.55448">
        <ele>520.40002441406</ele>
        <time>2019-08-27T13:35:38.000Z</time>
      </trkpt>
      <trkpt lat="46.11481" lon="4.55442">
        <ele>520</ele>
        <time>2019-08-27T13:35:43.000Z</time>
      </trkpt>
      <trkpt lat="46.11478" lon="4.5544">
        <ele>520.20001220703</ele>
        <time>2019-08-27T13:35:44.000Z</time>
      </trkpt>
      <trkpt lat="46.11464" lon="4.55431">
        <ele>521.40002441406</ele>
        <time>2019-08-27T13:35:50.000Z</time>
      </trkpt>
      <trkpt lat="46.11459" lon="4.55428">
        <ele>521.79998779297</ele>
        <time>2019-08-27T13:35:52.000Z</time>
      </trkpt>
      <trkpt lat="46.11445" lon="4.55414">
        <ele>524.40002441406</ele>
        <time>2019-08-27T13:35:59.000Z</time>
      </trkpt>
      <trkpt lat="46.11434" lon="4.55403">
        <ele>526.59997558594</ele>
        <time>2019-08-27T13:36:04.000Z</time>
      </trkpt>
      <trkpt lat="46.11429" lon="4.55399">
        <ele>527.20001220703</ele>
        <time>2019-08-27T13:36:06.000Z</time>
      </trkpt>
      <trkpt lat="46.11424" lon="4.55395">
        <ele>528</ele>
        <time>2019-08-27T13:36:08.000Z</time>
      </trkpt>
      <trkpt lat="46.11414" lon="4.55385">
        <ele>529.79998779297</ele>
        <time>2019-08-27T13:36:13.000Z</time>
      </trkpt>
      <trkpt lat="46.11402" lon="4.55374">
        <ele>531.79998779297</ele>
        <time>2019-08-27T13:36:19.000Z</time>
      </trkpt>
      <trkpt lat="46.11398" lon="4.55371">
        <ele>532.40002441406</ele>
        <time>2019-08-27T13:36:21.000Z</time>
      </trkpt>
      <trkpt lat="46.11388" lon="4.55362">
        <ele>533.20001220703</ele>
        <time>2019-08-27T13:36:26.000Z</time>
      </trkpt>
      <trkpt lat="46.11375" lon="4.55349">
        <ele>534.40002441406</ele>
        <time>2019-08-27T13:36:32.000Z</time>
      </trkpt>
      <trkpt lat="46.11359" lon="4.55331">
        <ele>536</ele>
        <time>2019-08-27T13:36:40.000Z</time>
      </trkpt>
      <trkpt lat="46.11349" lon="4.55318">
        <ele>537.40002441406</ele>
        <time>2019-08-27T13:36:46.000Z</time>
      </trkpt>
      <trkpt lat="46.1134" lon="4.55305">
        <ele>539.20001220703</ele>
        <time>2019-08-27T13:36:51.000Z</time>
      </trkpt>
      <trkpt lat="46.11326" lon="4.55288">
        <ele>541.20001220703</ele>
        <time>2019-08-27T13:36:58.000Z</time>
      </trkpt>
      <trkpt lat="46.11314" lon="4.55268">
        <ele>544</ele>
        <time>2019-08-27T13:37:05.000Z</time>
      </trkpt>
      <trkpt lat="46.11309" lon="4.55259">
        <ele>545.40002441406</ele>
        <time>2019-08-27T13:37:08.000Z</time>
      </trkpt>
      <trkpt lat="46.11305" lon="4.55251">
        <ele>546.59997558594</ele>
        <time>2019-08-27T13:37:11.000Z</time>
      </trkpt>
      <trkpt lat="46.11297" lon="4.55232">
        <ele>549.20001220703</ele>
        <time>2019-08-27T13:37:17.000Z</time>
      </trkpt>
      <trkpt lat="46.11284" lon="4.5521">
        <ele>551.59997558594</ele>
        <time>2019-08-27T13:37:24.000Z</time>
      </trkpt>
      <trkpt lat="46.11278" lon="4.552">
        <ele>552.79998779297</ele>
        <time>2019-08-27T13:37:27.000Z</time>
      </trkpt>
      <trkpt lat="46.11269" lon="4.55185">
        <ele>553</ele>
        <time>2019-08-27T13:37:32.000Z</time>
      </trkpt>
      <trkpt lat="46.1126" lon="4.5518">
        <ele>551.79998779297</ele>
        <time>2019-08-27T13:37:35.000Z</time>
      </trkpt>
      <trkpt lat="46.11253" lon="4.55179">
        <ele>550.20001220703</ele>
        <time>2019-08-27T13:37:37.000Z</time>
      </trkpt>
      <trkpt lat="46.11247" lon="4.55181">
        <ele>548.20001220703</ele>
        <time>2019-08-27T13:37:39.000Z</time>
      </trkpt>
      <trkpt lat="46.1124" lon="4.55187">
        <ele>545</ele>
        <time>2019-08-27T13:37:42.000Z</time>
      </trkpt>
      <trkpt lat="46.11238" lon="4.5519">
        <ele>544</ele>
        <time>2019-08-27T13:37:43.000Z</time>
      </trkpt>
      <trkpt lat="46.11232" lon="4.55204">
        <ele>539.40002441406</ele>
        <time>2019-08-27T13:37:47.000Z</time>
      </trkpt>
      <trkpt lat="46.11229" lon="4.55216">
        <ele>537.59997558594</ele>
        <time>2019-08-27T13:37:50.000Z</time>
      </trkpt>
      <trkpt lat="46.11228" lon="4.55221">
        <ele>537</ele>
        <time>2019-08-27T13:37:51.000Z</time>
      </trkpt>
      <trkpt lat="46.11224" lon="4.55236">
        <ele>535.59997558594</ele>
        <time>2019-08-27T13:37:55.000Z</time>
      </trkpt>
      <trkpt lat="46.11222" lon="4.55249">
        <ele>534.59997558594</ele>
        <time>2019-08-27T13:37:58.000Z</time>
      </trkpt>
      <trkpt lat="46.11221" lon="4.55252">
        <ele>534.40002441406</ele>
        <time>2019-08-27T13:37:59.000Z</time>
      </trkpt>
      <trkpt lat="46.11217" lon="4.55276">
        <ele>532.59997558594</ele>
        <time>2019-08-27T13:38:05.000Z</time>
      </trkpt>
      <trkpt lat="46.11215" lon="4.55284">
        <ele>533.40002441406</ele>
        <time>2019-08-27T13:38:07.000Z</time>
      </trkpt>
      <trkpt lat="46.11211" lon="4.55304">
        <ele>533.40002441406</ele>
        <time>2019-08-27T13:38:13.000Z</time>
      </trkpt>
      <trkpt lat="46.11207" lon="4.55322">
        <ele>533.40002441406</ele>
        <time>2019-08-27T13:38:18.000Z</time>
      </trkpt>
      <trkpt lat="46.11206" lon="4.55325">
        <ele>533.59997558594</ele>
        <time>2019-08-27T13:38:19.000Z</time>
      </trkpt>
      <trkpt lat="46.11204" lon="4.55335">
        <ele>533.40002441406</ele>
        <time>2019-08-27T13:38:22.000Z</time>
      </trkpt>
      <trkpt lat="46.11204" lon="4.55342">
        <ele>533.20001220703</ele>
        <time>2019-08-27T13:38:24.000Z</time>
      </trkpt>
      <trkpt lat="46.11204" lon="4.55345">
        <ele>533</ele>
        <time>2019-08-27T13:38:25.000Z</time>
      </trkpt>
      <trkpt lat="46.11204" lon="4.55361">
        <ele>533.20001220703</ele>
        <time>2019-08-27T13:38:30.000Z</time>
      </trkpt>
      <trkpt lat="46.11203" lon="4.55365">
        <ele>533.40002441406</ele>
        <time>2019-08-27T13:38:31.000Z</time>
      </trkpt>
      <trkpt lat="46.11204" lon="4.55378">
        <ele>533.59997558594</ele>
        <time>2019-08-27T13:38:34.000Z</time>
      </trkpt>
      <trkpt lat="46.11205" lon="4.55386">
        <ele>533.20001220703</ele>
        <time>2019-08-27T13:38:36.000Z</time>
      </trkpt>
      <trkpt lat="46.11205" lon="4.5539">
        <ele>533</ele>
        <time>2019-08-27T13:38:37.000Z</time>
      </trkpt>
      <trkpt lat="46.11207" lon="4.55407">
        <ele>532.79998779297</ele>
        <time>2019-08-27T13:38:41.000Z</time>
      </trkpt>
      <trkpt lat="46.11207" lon="4.55411">
        <ele>532.59997558594</ele>
        <time>2019-08-27T13:38:42.000Z</time>
      </trkpt>
      <trkpt lat="46.1121" lon="4.5543">
        <ele>531.79998779297</ele>
        <time>2019-08-27T13:38:47.000Z</time>
      </trkpt>
      <trkpt lat="46.11214" lon="4.55453">
        <ele>531.59997558594</ele>
        <time>2019-08-27T13:38:53.000Z</time>
      </trkpt>
      <trkpt lat="46.11214" lon="4.5548">
        <ele>533.79998779297</ele>
        <time>2019-08-27T13:39:00.000Z</time>
      </trkpt>
      <trkpt lat="46.11215" lon="4.55487">
        <ele>534.20001220703</ele>
        <time>2019-08-27T13:39:02.000Z</time>
      </trkpt>
      <trkpt lat="46.11217" lon="4.55499">
        <ele>534.79998779297</ele>
        <time>2019-08-27T13:39:05.000Z</time>
      </trkpt>
      <trkpt lat="46.11219" lon="4.55506">
        <ele>534.59997558594</ele>
        <time>2019-08-27T13:39:07.000Z</time>
      </trkpt>
      <trkpt lat="46.11221" lon="4.55523">
        <ele>535.20001220703</ele>
        <time>2019-08-27T13:39:11.000Z</time>
      </trkpt>
      <trkpt lat="46.11223" lon="4.55531">
        <ele>535.20001220703</ele>
        <time>2019-08-27T13:39:13.000Z</time>
      </trkpt>
      <trkpt lat="46.11227" lon="4.55553">
        <ele>536.40002441406</ele>
        <time>2019-08-27T13:39:19.000Z</time>
      </trkpt>
      <trkpt lat="46.1123" lon="4.55575">
        <ele>538.40002441406</ele>
        <time>2019-08-27T13:39:25.000Z</time>
      </trkpt>
      <trkpt lat="46.1123" lon="4.55582">
        <ele>539.20001220703</ele>
        <time>2019-08-27T13:39:27.000Z</time>
      </trkpt>
      <trkpt lat="46.11232" lon="4.55606">
        <ele>541.79998779297</ele>
        <time>2019-08-27T13:39:34.000Z</time>
      </trkpt>
      <trkpt lat="46.11232" lon="4.5561">
        <ele>542.40002441406</ele>
        <time>2019-08-27T13:39:35.000Z</time>
      </trkpt>
      <trkpt lat="46.11232" lon="4.55628">
        <ele>544.40002441406</ele>
        <time>2019-08-27T13:39:40.000Z</time>
      </trkpt>
      <trkpt lat="46.11232" lon="4.55632">
        <ele>544.79998779297</ele>
        <time>2019-08-27T13:39:41.000Z</time>
      </trkpt>
      <trkpt lat="46.1123" lon="4.55658">
        <ele>547</ele>
        <time>2019-08-27T13:39:48.000Z</time>
      </trkpt>
      <trkpt lat="46.11228" lon="4.55683">
        <ele>549.59997558594</ele>
        <time>2019-08-27T13:39:55.000Z</time>
      </trkpt>
      <trkpt lat="46.11227" lon="4.55696">
        <ele>550.59997558594</ele>
        <time>2019-08-27T13:39:59.000Z</time>
      </trkpt>
      <trkpt lat="46.11226" lon="4.55704">
        <ele>551.40002441406</ele>
        <time>2019-08-27T13:40:01.000Z</time>
      </trkpt>
      <trkpt lat="46.11224" lon="4.55732">
        <ele>552.59997558594</ele>
        <time>2019-08-27T13:40:08.000Z</time>
      </trkpt>
      <trkpt lat="46.11222" lon="4.55765">
        <ele>554</ele>
        <time>2019-08-27T13:40:16.000Z</time>
      </trkpt>
      <trkpt lat="46.11219" lon="4.55795">
        <ele>554.20001220703</ele>
        <time>2019-08-27T13:40:23.000Z</time>
      </trkpt>
      <trkpt lat="46.11219" lon="4.55799">
        <ele>553.79998779297</ele>
        <time>2019-08-27T13:40:24.000Z</time>
      </trkpt>
      <trkpt lat="46.11219" lon="4.55803">
        <ele>553.59997558594</ele>
        <time>2019-08-27T13:40:25.000Z</time>
      </trkpt>
      <trkpt lat="46.1122" lon="4.55808">
        <ele>553.40002441406</ele>
        <time>2019-08-27T13:40:26.000Z</time>
      </trkpt>
      <trkpt lat="46.11219" lon="4.55811">
        <ele>553.20001220703</ele>
        <time>2019-08-27T13:40:27.000Z</time>
      </trkpt>
      <trkpt lat="46.11218" lon="4.55819">
        <ele>553.20001220703</ele>
        <time>2019-08-27T13:40:29.000Z</time>
      </trkpt>
      <trkpt lat="46.11216" lon="4.55826">
        <ele>553.40002441406</ele>
        <time>2019-08-27T13:40:31.000Z</time>
      </trkpt>
      <trkpt lat="46.11214" lon="4.55829">
        <ele>553.40002441406</ele>
        <time>2019-08-27T13:40:32.000Z</time>
      </trkpt>
      <trkpt lat="46.11211" lon="4.55834">
        <ele>554</ele>
        <time>2019-08-27T13:40:34.000Z</time>
      </trkpt>
      <trkpt lat="46.11209" lon="4.55836">
        <ele>554.20001220703</ele>
        <time>2019-08-27T13:40:35.000Z</time>
      </trkpt>
      <trkpt lat="46.11206" lon="4.55838">
        <ele>554.59997558594</ele>
        <time>2019-08-27T13:40:36.000Z</time>
      </trkpt>
      <trkpt lat="46.11204" lon="4.5584">
        <ele>555</ele>
        <time>2019-08-27T13:40:37.000Z</time>
      </trkpt>
      <trkpt lat="46.11199" lon="4.55843">
        <ele>555.59997558594</ele>
        <time>2019-08-27T13:40:39.000Z</time>
      </trkpt>
      <trkpt lat="46.11193" lon="4.55844">
        <ele>556.40002441406</ele>
        <time>2019-08-27T13:40:41.000Z</time>
      </trkpt>
      <trkpt lat="46.11191" lon="4.55843">
        <ele>556.59997558594</ele>
        <time>2019-08-27T13:40:42.000Z</time>
      </trkpt>
      <trkpt lat="46.11188" lon="4.55843">
        <ele>557</ele>
        <time>2019-08-27T13:40:43.000Z</time>
      </trkpt>
      <trkpt lat="46.11181" lon="4.55839">
        <ele>558.59997558594</ele>
        <time>2019-08-27T13:40:46.000Z</time>
      </trkpt>
      <trkpt lat="46.11176" lon="4.55836">
        <ele>559.59997558594</ele>
        <time>2019-08-27T13:40:48.000Z</time>
      </trkpt>
      <trkpt lat="46.11173" lon="4.55835">
        <ele>560</ele>
        <time>2019-08-27T13:40:49.000Z</time>
      </trkpt>
      <trkpt lat="46.11171" lon="4.55834">
        <ele>560.40002441406</ele>
        <time>2019-08-27T13:40:50.000Z</time>
      </trkpt>
      <trkpt lat="46.11167" lon="4.5583">
        <ele>561.40002441406</ele>
        <time>2019-08-27T13:40:52.000Z</time>
      </trkpt>
      <trkpt lat="46.1116" lon="4.55823">
        <ele>563.20001220703</ele>
        <time>2019-08-27T13:40:55.000Z</time>
      </trkpt>
      <trkpt lat="46.11158" lon="4.55821">
        <ele>563.79998779297</ele>
        <time>2019-08-27T13:40:56.000Z</time>
      </trkpt>
      <trkpt lat="46.11153" lon="4.55817">
        <ele>564.79998779297</ele>
        <time>2019-08-27T13:40:58.000Z</time>
      </trkpt>
      <trkpt lat="46.11145" lon="4.55808">
        <ele>567</ele>
        <time>2019-08-27T13:41:02.000Z</time>
      </trkpt>
      <trkpt lat="46.11143" lon="4.55806">
        <ele>567.40002441406</ele>
        <time>2019-08-27T13:41:03.000Z</time>
      </trkpt>
      <trkpt lat="46.11126" lon="4.55786">
        <ele>568</ele>
        <time>2019-08-27T13:41:11.000Z</time>
      </trkpt>
      <trkpt lat="46.11124" lon="4.55784">
        <ele>568.20001220703</ele>
        <time>2019-08-27T13:41:12.000Z</time>
      </trkpt>
      <trkpt lat="46.11117" lon="4.55774">
        <ele>569.20001220703</ele>
        <time>2019-08-27T13:41:16.000Z</time>
      </trkpt>
      <trkpt lat="46.11113" lon="4.55769">
        <ele>569.79998779297</ele>
        <time>2019-08-27T13:41:18.000Z</time>
      </trkpt>
      <trkpt lat="46.11111" lon="4.55766">
        <ele>570</ele>
        <time>2019-08-27T13:41:19.000Z</time>
      </trkpt>
      <trkpt lat="46.11109" lon="4.55764">
        <ele>570.40002441406</ele>
        <time>2019-08-27T13:41:21.000Z</time>
      </trkpt>
      <trkpt lat="46.11105" lon="4.55759">
        <ele>570.79998779297</ele>
        <time>2019-08-27T13:41:23.000Z</time>
      </trkpt>
      <trkpt lat="46.11097" lon="4.55747">
        <ele>572.20001220703</ele>
        <time>2019-08-27T13:41:27.000Z</time>
      </trkpt>
      <trkpt lat="46.11095" lon="4.55745">
        <ele>572.59997558594</ele>
        <time>2019-08-27T13:41:28.000Z</time>
      </trkpt>
      <trkpt lat="46.11091" lon="4.55739">
        <ele>573.20001220703</ele>
        <time>2019-08-27T13:41:30.000Z</time>
      </trkpt>
      <trkpt lat="46.11086" lon="4.5573">
        <ele>574.20001220703</ele>
        <time>2019-08-27T13:41:33.000Z</time>
      </trkpt>
      <trkpt lat="46.11079" lon="4.55719">
        <ele>575.40002441406</ele>
        <time>2019-08-27T13:41:37.000Z</time>
      </trkpt>
      <trkpt lat="46.11073" lon="4.5571">
        <ele>576.20001220703</ele>
        <time>2019-08-27T13:41:40.000Z</time>
      </trkpt>
      <trkpt lat="46.11066" lon="4.55698">
        <ele>577.20001220703</ele>
        <time>2019-08-27T13:41:44.000Z</time>
      </trkpt>
      <trkpt lat="46.11063" lon="4.55692">
        <ele>577.79998779297</ele>
        <time>2019-08-27T13:41:46.000Z</time>
      </trkpt>
      <trkpt lat="46.11056" lon="4.55676">
        <ele>579.20001220703</ele>
        <time>2019-08-27T13:41:51.000Z</time>
      </trkpt>
      <trkpt lat="46.11051" lon="4.55668">
        <ele>579.59997558594</ele>
        <time>2019-08-27T13:41:54.000Z</time>
      </trkpt>
      <trkpt lat="46.11049" lon="4.55665">
        <ele>579.79998779297</ele>
        <time>2019-08-27T13:41:55.000Z</time>
      </trkpt>
      <trkpt lat="46.11038" lon="4.55643">
        <ele>580.79998779297</ele>
        <time>2019-08-27T13:42:02.000Z</time>
      </trkpt>
      <trkpt lat="46.11035" lon="4.55637">
        <ele>581.20001220703</ele>
        <time>2019-08-27T13:42:04.000Z</time>
      </trkpt>
      <trkpt lat="46.11025" lon="4.55618">
        <ele>582.20001220703</ele>
        <time>2019-08-27T13:42:10.000Z</time>
      </trkpt>
      <trkpt lat="46.11024" lon="4.55615">
        <ele>582.40002441406</ele>
        <time>2019-08-27T13:42:11.000Z</time>
      </trkpt>
      <trkpt lat="46.11016" lon="4.556">
        <ele>583.79998779297</ele>
        <time>2019-08-27T13:42:16.000Z</time>
      </trkpt>
      <trkpt lat="46.11014" lon="4.55597">
        <ele>584</ele>
        <time>2019-08-27T13:42:17.000Z</time>
      </trkpt>
      <trkpt lat="46.11001" lon="4.55574">
        <ele>585.79998779297</ele>
        <time>2019-08-27T13:42:25.000Z</time>
      </trkpt>
      <trkpt lat="46.10991" lon="4.55561">
        <ele>586.59997558594</ele>
        <time>2019-08-27T13:42:30.000Z</time>
      </trkpt>
      <trkpt lat="46.10987" lon="4.55555">
        <ele>587</ele>
        <time>2019-08-27T13:42:32.000Z</time>
      </trkpt>
      <trkpt lat="46.10982" lon="4.55547">
        <ele>587.59997558594</ele>
        <time>2019-08-27T13:42:35.000Z</time>
      </trkpt>
      <trkpt lat="46.10974" lon="4.55537">
        <ele>588.20001220703</ele>
        <time>2019-08-27T13:42:39.000Z</time>
      </trkpt>
      <trkpt lat="46.10968" lon="4.55529">
        <ele>588.40002441406</ele>
        <time>2019-08-27T13:42:42.000Z</time>
      </trkpt>
      <trkpt lat="46.1096" lon="4.55518">
        <ele>589</ele>
        <time>2019-08-27T13:42:46.000Z</time>
      </trkpt>
      <trkpt lat="46.10958" lon="4.55516">
        <ele>589</ele>
        <time>2019-08-27T13:42:47.000Z</time>
      </trkpt>
      <trkpt lat="46.10948" lon="4.55502">
        <ele>589.20001220703</ele>
        <time>2019-08-27T13:42:52.000Z</time>
      </trkpt>
      <trkpt lat="46.10942" lon="4.55493">
        <ele>589.40002441406</ele>
        <time>2019-08-27T13:42:55.000Z</time>
      </trkpt>
      <trkpt lat="46.10931" lon="4.55475">
        <ele>590</ele>
        <time>2019-08-27T13:43:01.000Z</time>
      </trkpt>
      <trkpt lat="46.10926" lon="4.55465">
        <ele>590.40002441406</ele>
        <time>2019-08-27T13:43:04.000Z</time>
      </trkpt>
      <trkpt lat="46.10925" lon="4.55462">
        <ele>590.40002441406</ele>
        <time>2019-08-27T13:43:05.000Z</time>
      </trkpt>
      <trkpt lat="46.10916" lon="4.55439">
        <ele>592</ele>
        <time>2019-08-27T13:43:12.000Z</time>
      </trkpt>
      <trkpt lat="46.10913" lon="4.55425">
        <ele>593.20001220703</ele>
        <time>2019-08-27T13:43:16.000Z</time>
      </trkpt>
      <trkpt lat="46.10909" lon="4.5541">
        <ele>594.40002441406</ele>
        <time>2019-08-27T13:43:20.000Z</time>
      </trkpt>
      <trkpt lat="46.10904" lon="4.55396">
        <ele>595.59997558594</ele>
        <time>2019-08-27T13:43:24.000Z</time>
      </trkpt>
      <trkpt lat="46.109" lon="4.55382">
        <ele>596.79998779297</ele>
        <time>2019-08-27T13:43:28.000Z</time>
      </trkpt>
      <trkpt lat="46.10899" lon="4.55378">
        <ele>597.20001220703</ele>
        <time>2019-08-27T13:43:29.000Z</time>
      </trkpt>
      <trkpt lat="46.1089" lon="4.55346">
        <ele>599.20001220703</ele>
        <time>2019-08-27T13:43:38.000Z</time>
      </trkpt>
      <trkpt lat="46.10889" lon="4.55343">
        <ele>599.20001220703</ele>
        <time>2019-08-27T13:43:39.000Z</time>
      </trkpt>
      <trkpt lat="46.1088" lon="4.55315">
        <ele>599.79998779297</ele>
        <time>2019-08-27T13:43:47.000Z</time>
      </trkpt>
      <trkpt lat="46.10875" lon="4.55297">
        <ele>600.40002441406</ele>
        <time>2019-08-27T13:43:52.000Z</time>
      </trkpt>
      <trkpt lat="46.10874" lon="4.5529">
        <ele>600.59997558594</ele>
        <time>2019-08-27T13:43:54.000Z</time>
      </trkpt>
      <trkpt lat="46.10867" lon="4.55267">
        <ele>604</ele>
        <time>2019-08-27T13:44:01.000Z</time>
      </trkpt>
      <trkpt lat="46.10866" lon="4.55263">
        <ele>604.59997558594</ele>
        <time>2019-08-27T13:44:02.000Z</time>
      </trkpt>
      <trkpt lat="46.10859" lon="4.55244">
        <ele>607.20001220703</ele>
        <time>2019-08-27T13:44:08.000Z</time>
      </trkpt>
      <trkpt lat="46.10858" lon="4.55241">
        <ele>607.59997558594</ele>
        <time>2019-08-27T13:44:09.000Z</time>
      </trkpt>
      <trkpt lat="46.1085" lon="4.55223">
        <ele>609.40002441406</ele>
        <time>2019-08-27T13:44:15.000Z</time>
      </trkpt>
      <trkpt lat="46.10845" lon="4.55214">
        <ele>610</ele>
        <time>2019-08-27T13:44:18.000Z</time>
      </trkpt>
      <trkpt lat="46.10841" lon="4.55205">
        <ele>611</ele>
        <time>2019-08-27T13:44:21.000Z</time>
      </trkpt>
      <trkpt lat="46.10828" lon="4.55182">
        <ele>613</ele>
        <time>2019-08-27T13:44:29.000Z</time>
      </trkpt>
      <trkpt lat="46.10822" lon="4.5517">
        <ele>614.20001220703</ele>
        <time>2019-08-27T13:44:33.000Z</time>
      </trkpt>
      <trkpt lat="46.10814" lon="4.55159">
        <ele>615</ele>
        <time>2019-08-27T13:44:37.000Z</time>
      </trkpt>
      <trkpt lat="46.10806" lon="4.55144">
        <ele>616</ele>
        <time>2019-08-27T13:44:42.000Z</time>
      </trkpt>
      <trkpt lat="46.10801" lon="4.55135">
        <ele>616.59997558594</ele>
        <time>2019-08-27T13:44:45.000Z</time>
      </trkpt>
      <trkpt lat="46.108" lon="4.55132">
        <ele>616.79998779297</ele>
        <time>2019-08-27T13:44:46.000Z</time>
      </trkpt>
      <trkpt lat="46.10792" lon="4.55116">
        <ele>618</ele>
        <time>2019-08-27T13:44:51.000Z</time>
      </trkpt>
      <trkpt lat="46.10787" lon="4.55108">
        <ele>618.20001220703</ele>
        <time>2019-08-27T13:44:54.000Z</time>
      </trkpt>
      <trkpt lat="46.10784" lon="4.55102">
        <ele>618</ele>
        <time>2019-08-27T13:44:56.000Z</time>
      </trkpt>
      <trkpt lat="46.10776" lon="4.55087">
        <ele>618.20001220703</ele>
        <time>2019-08-27T13:45:01.000Z</time>
      </trkpt>
      <trkpt lat="46.10775" lon="4.55084">
        <ele>618.40002441406</ele>
        <time>2019-08-27T13:45:02.000Z</time>
      </trkpt>
      <trkpt lat="46.10768" lon="4.5507">
        <ele>618.59997558594</ele>
        <time>2019-08-27T13:45:07.000Z</time>
      </trkpt>
      <trkpt lat="46.10765" lon="4.55065">
        <ele>618.59997558594</ele>
        <time>2019-08-27T13:45:09.000Z</time>
      </trkpt>
      <trkpt lat="46.10758" lon="4.55049">
        <ele>619.20001220703</ele>
        <time>2019-08-27T13:45:14.000Z</time>
      </trkpt>
      <trkpt lat="46.10757" lon="4.55046">
        <ele>619.20001220703</ele>
        <time>2019-08-27T13:45:15.000Z</time>
      </trkpt>
      <trkpt lat="46.10751" lon="4.55028">
        <ele>620.59997558594</ele>
        <time>2019-08-27T13:45:21.000Z</time>
      </trkpt>
      <trkpt lat="46.1075" lon="4.55024">
        <ele>620.79998779297</ele>
        <time>2019-08-27T13:45:22.000Z</time>
      </trkpt>
      <trkpt lat="46.10743" lon="4.54998">
        <ele>623.20001220703</ele>
        <time>2019-08-27T13:45:30.000Z</time>
      </trkpt>
      <trkpt lat="46.10742" lon="4.54995">
        <ele>623.59997558594</ele>
        <time>2019-08-27T13:45:31.000Z</time>
      </trkpt>
      <trkpt lat="46.10736" lon="4.54969">
        <ele>626.40002441406</ele>
        <time>2019-08-27T13:45:39.000Z</time>
      </trkpt>
      <trkpt lat="46.10734" lon="4.54963">
        <ele>627</ele>
        <time>2019-08-27T13:45:41.000Z</time>
      </trkpt>
      <trkpt lat="46.10729" lon="4.54945">
        <ele>628.59997558594</ele>
        <time>2019-08-27T13:45:47.000Z</time>
      </trkpt>
      <trkpt lat="46.10728" lon="4.54942">
        <ele>628.79998779297</ele>
        <time>2019-08-27T13:45:48.000Z</time>
      </trkpt>
      <trkpt lat="46.10724" lon="4.54931">
        <ele>630.20001220703</ele>
        <time>2019-08-27T13:45:52.000Z</time>
      </trkpt>
      <trkpt lat="46.1072" lon="4.54919">
        <ele>631.79998779297</ele>
        <time>2019-08-27T13:45:56.000Z</time>
      </trkpt>
      <trkpt lat="46.10716" lon="4.5491">
        <ele>632.59997558594</ele>
        <time>2019-08-27T13:45:59.000Z</time>
      </trkpt>
      <trkpt lat="46.10712" lon="4.54901">
        <ele>633.40002441406</ele>
        <time>2019-08-27T13:46:02.000Z</time>
      </trkpt>
      <trkpt lat="46.10702" lon="4.54886">
        <ele>634.40002441406</ele>
        <time>2019-08-27T13:46:08.000Z</time>
      </trkpt>
      <trkpt lat="46.10698" lon="4.54881">
        <ele>634.40002441406</ele>
        <time>2019-08-27T13:46:10.000Z</time>
      </trkpt>
      <trkpt lat="46.10692" lon="4.54874">
        <ele>634.59997558594</ele>
        <time>2019-08-27T13:46:13.000Z</time>
      </trkpt>
      <trkpt lat="46.10684" lon="4.5487">
        <ele>633.79998779297</ele>
        <time>2019-08-27T13:46:16.000Z</time>
      </trkpt>
      <trkpt lat="46.10666" lon="4.5486">
        <ele>633.20001220703</ele>
        <time>2019-08-27T13:46:22.000Z</time>
      </trkpt>
      <trkpt lat="46.10641" lon="4.5485">
        <ele>631.20001220703</ele>
        <time>2019-08-27T13:46:29.000Z</time>
      </trkpt>
      <trkpt lat="46.10627" lon="4.54846">
        <ele>629.40002441406</ele>
        <time>2019-08-27T13:46:33.000Z</time>
      </trkpt>
      <trkpt lat="46.10619" lon="4.54845">
        <ele>628.20001220703</ele>
        <time>2019-08-27T13:46:35.000Z</time>
      </trkpt>
      <trkpt lat="46.10594" lon="4.54838">
        <ele>626.79998779297</ele>
        <time>2019-08-27T13:46:42.000Z</time>
      </trkpt>
      <trkpt lat="46.10589" lon="4.54832">
        <ele>627.40002441406</ele>
        <time>2019-08-27T13:46:44.000Z</time>
      </trkpt>
      <trkpt lat="46.10582" lon="4.54823">
        <ele>628.79998779297</ele>
        <time>2019-08-27T13:46:47.000Z</time>
      </trkpt>
      <trkpt lat="46.1058" lon="4.54819">
        <ele>629.40002441406</ele>
        <time>2019-08-27T13:46:48.000Z</time>
      </trkpt>
      <trkpt lat="46.10571" lon="4.54805">
        <ele>631.40002441406</ele>
        <time>2019-08-27T13:46:53.000Z</time>
      </trkpt>
      <trkpt lat="46.10564" lon="4.54792">
        <ele>633.59997558594</ele>
        <time>2019-08-27T13:46:57.000Z</time>
      </trkpt>
      <trkpt lat="46.10559" lon="4.54784">
        <ele>634.79998779297</ele>
        <time>2019-08-27T13:47:00.000Z</time>
      </trkpt>
      <trkpt lat="46.10551" lon="4.54769">
        <ele>637.59997558594</ele>
        <time>2019-08-27T13:47:05.000Z</time>
      </trkpt>
      <trkpt lat="46.10546" lon="4.54761">
        <ele>639</ele>
        <time>2019-08-27T13:47:08.000Z</time>
      </trkpt>
      <trkpt lat="46.10545" lon="4.54758">
        <ele>639.59997558594</ele>
        <time>2019-08-27T13:47:09.000Z</time>
      </trkpt>
      <trkpt lat="46.10537" lon="4.54744">
        <ele>642</ele>
        <time>2019-08-27T13:47:14.000Z</time>
      </trkpt>
      <trkpt lat="46.10528" lon="4.5473">
        <ele>644.59997558594</ele>
        <time>2019-08-27T13:47:19.000Z</time>
      </trkpt>
      <trkpt lat="46.10525" lon="4.54724">
        <ele>645.59997558594</ele>
        <time>2019-08-27T13:47:21.000Z</time>
      </trkpt>
      <trkpt lat="46.10519" lon="4.54712">
        <ele>647.79998779297</ele>
        <time>2019-08-27T13:47:26.000Z</time>
      </trkpt>
      <trkpt lat="46.1051" lon="4.54694">
        <ele>651.79998779297</ele>
        <time>2019-08-27T13:47:32.000Z</time>
      </trkpt>
      <trkpt lat="46.10503" lon="4.54684">
        <ele>654</ele>
        <time>2019-08-27T13:47:36.000Z</time>
      </trkpt>
      <trkpt lat="46.10497" lon="4.54676">
        <ele>655.79998779297</ele>
        <time>2019-08-27T13:47:39.000Z</time>
      </trkpt>
      <trkpt lat="46.10489" lon="4.54666">
        <ele>657.79998779297</ele>
        <time>2019-08-27T13:47:44.000Z</time>
      </trkpt>
      <trkpt lat="46.10487" lon="4.54664">
        <ele>658.20001220703</ele>
        <time>2019-08-27T13:47:45.000Z</time>
      </trkpt>
      <trkpt lat="46.1048" lon="4.54658">
        <ele>658.79998779297</ele>
        <time>2019-08-27T13:47:48.000Z</time>
      </trkpt>
      <trkpt lat="46.10475" lon="4.54655">
        <ele>659.20001220703</ele>
        <time>2019-08-27T13:47:50.000Z</time>
      </trkpt>
      <trkpt lat="46.10466" lon="4.54651">
        <ele>660.20001220703</ele>
        <time>2019-08-27T13:47:54.000Z</time>
      </trkpt>
      <trkpt lat="46.10464" lon="4.5465">
        <ele>660.40002441406</ele>
        <time>2019-08-27T13:47:55.000Z</time>
      </trkpt>
      <trkpt lat="46.10457" lon="4.54648">
        <ele>660.59997558594</ele>
        <time>2019-08-27T13:47:58.000Z</time>
      </trkpt>
      <trkpt lat="46.10446" lon="4.54646">
        <ele>660.40002441406</ele>
        <time>2019-08-27T13:48:02.000Z</time>
      </trkpt>
      <trkpt lat="46.10443" lon="4.54646">
        <ele>660.40002441406</ele>
        <time>2019-08-27T13:48:03.000Z</time>
      </trkpt>
      <trkpt lat="46.10426" lon="4.54643">
        <ele>660.20001220703</ele>
        <time>2019-08-27T13:48:10.000Z</time>
      </trkpt>
      <trkpt lat="46.10416" lon="4.54642">
        <ele>659.59997558594</ele>
        <time>2019-08-27T13:48:14.000Z</time>
      </trkpt>
      <trkpt lat="46.10408" lon="4.54641">
        <ele>659.40002441406</ele>
        <time>2019-08-27T13:48:17.000Z</time>
      </trkpt>
      <trkpt lat="46.10396" lon="4.54639">
        <ele>658.59997558594</ele>
        <time>2019-08-27T13:48:22.000Z</time>
      </trkpt>
      <trkpt lat="46.10378" lon="4.54636">
        <ele>658.59997558594</ele>
        <time>2019-08-27T13:48:30.000Z</time>
      </trkpt>
      <trkpt lat="46.10375" lon="4.54636">
        <ele>658.40002441406</ele>
        <time>2019-08-27T13:48:31.000Z</time>
      </trkpt>
      <trkpt lat="46.10365" lon="4.54636">
        <ele>658.20001220703</ele>
        <time>2019-08-27T13:48:35.000Z</time>
      </trkpt>
      <trkpt lat="46.10354" lon="4.54633">
        <ele>658.59997558594</ele>
        <time>2019-08-27T13:48:40.000Z</time>
      </trkpt>
      <trkpt lat="46.1034" lon="4.5463">
        <ele>658.79998779297</ele>
        <time>2019-08-27T13:48:46.000Z</time>
      </trkpt>
      <trkpt lat="46.10323" lon="4.54624">
        <ele>660.20001220703</ele>
        <time>2019-08-27T13:48:53.000Z</time>
      </trkpt>
      <trkpt lat="46.10316" lon="4.54621">
        <ele>660.79998779297</ele>
        <time>2019-08-27T13:48:56.000Z</time>
      </trkpt>
      <trkpt lat="46.10307" lon="4.54616">
        <ele>661.79998779297</ele>
        <time>2019-08-27T13:49:00.000Z</time>
      </trkpt>
      <trkpt lat="46.10297" lon="4.5461">
        <ele>662.20001220703</ele>
        <time>2019-08-27T13:49:04.000Z</time>
      </trkpt>
      <trkpt lat="46.10291" lon="4.54606">
        <ele>662.59997558594</ele>
        <time>2019-08-27T13:49:07.000Z</time>
      </trkpt>
      <trkpt lat="46.10284" lon="4.54601">
        <ele>663</ele>
        <time>2019-08-27T13:49:10.000Z</time>
      </trkpt>
      <trkpt lat="46.10275" lon="4.54593">
        <ele>664</ele>
        <time>2019-08-27T13:49:14.000Z</time>
      </trkpt>
      <trkpt lat="46.10258" lon="4.54577">
        <ele>666.40002441406</ele>
        <time>2019-08-27T13:49:22.000Z</time>
      </trkpt>
      <trkpt lat="46.1024" lon="4.54559">
        <ele>669.79998779297</ele>
        <time>2019-08-27T13:49:31.000Z</time>
      </trkpt>
      <trkpt lat="46.10239" lon="4.54556">
        <ele>670.40002441406</ele>
        <time>2019-08-27T13:49:32.000Z</time>
      </trkpt>
      <trkpt lat="46.10229" lon="4.54545">
        <ele>672.59997558594</ele>
        <time>2019-08-27T13:49:37.000Z</time>
      </trkpt>
      <trkpt lat="46.10215" lon="4.5453">
        <ele>673.59997558594</ele>
        <time>2019-08-27T13:49:44.000Z</time>
      </trkpt>
      <trkpt lat="46.10213" lon="4.54528">
        <ele>673.59997558594</ele>
        <time>2019-08-27T13:49:45.000Z</time>
      </trkpt>
      <trkpt lat="46.10202" lon="4.54515">
        <ele>674</ele>
        <time>2019-08-27T13:49:51.000Z</time>
      </trkpt>
      <trkpt lat="46.102" lon="4.54512">
        <ele>674.20001220703</ele>
        <time>2019-08-27T13:49:52.000Z</time>
      </trkpt>
      <trkpt lat="46.10187" lon="4.54496">
        <ele>674.79998779297</ele>
        <time>2019-08-27T13:49:59.000Z</time>
      </trkpt>
      <trkpt lat="46.10185" lon="4.54494">
        <ele>675</ele>
        <time>2019-08-27T13:50:00.000Z</time>
      </trkpt>
      <trkpt lat="46.10175" lon="4.54479">
        <ele>676.40002441406</ele>
        <time>2019-08-27T13:50:06.000Z</time>
      </trkpt>
      <trkpt lat="46.10169" lon="4.54467">
        <ele>678.20001220703</ele>
        <time>2019-08-27T13:50:10.000Z</time>
      </trkpt>
      <trkpt lat="46.10165" lon="4.5446">
        <ele>679.20001220703</ele>
        <time>2019-08-27T13:50:13.000Z</time>
      </trkpt>
      <trkpt lat="46.1016" lon="4.54447">
        <ele>681.40002441406</ele>
        <time>2019-08-27T13:50:18.000Z</time>
      </trkpt>
      <trkpt lat="46.10157" lon="4.54441">
        <ele>681.79998779297</ele>
        <time>2019-08-27T13:50:20.000Z</time>
      </trkpt>
      <trkpt lat="46.10154" lon="4.54428">
        <ele>683.59997558594</ele>
        <time>2019-08-27T13:50:24.000Z</time>
      </trkpt>
      <trkpt lat="46.10148" lon="4.54419">
        <ele>684.20001220703</ele>
        <time>2019-08-27T13:50:28.000Z</time>
      </trkpt>
      <trkpt lat="46.10142" lon="4.54407">
        <ele>685.20001220703</ele>
        <time>2019-08-27T13:50:32.000Z</time>
      </trkpt>
      <trkpt lat="46.10138" lon="4.54398">
        <ele>686.79998779297</ele>
        <time>2019-08-27T13:50:35.000Z</time>
      </trkpt>
      <trkpt lat="46.10132" lon="4.54385">
        <ele>689</ele>
        <time>2019-08-27T13:50:40.000Z</time>
      </trkpt>
      <trkpt lat="46.10127" lon="4.54378">
        <ele>689.79998779297</ele>
        <time>2019-08-27T13:50:43.000Z</time>
      </trkpt>
      <trkpt lat="46.10123" lon="4.54372">
        <ele>690.40002441406</ele>
        <time>2019-08-27T13:50:45.000Z</time>
      </trkpt>
      <trkpt lat="46.10121" lon="4.5437">
        <ele>690.59997558594</ele>
        <time>2019-08-27T13:50:46.000Z</time>
      </trkpt>
      <trkpt lat="46.10111" lon="4.54363">
        <ele>691</ele>
        <time>2019-08-27T13:50:50.000Z</time>
      </trkpt>
      <trkpt lat="46.10109" lon="4.54362">
        <ele>691</ele>
        <time>2019-08-27T13:50:51.000Z</time>
      </trkpt>
      <trkpt lat="46.10106" lon="4.5436">
        <ele>691.20001220703</ele>
        <time>2019-08-27T13:50:52.000Z</time>
      </trkpt>
      <trkpt lat="46.10101" lon="4.54358">
        <ele>691</ele>
        <time>2019-08-27T13:50:54.000Z</time>
      </trkpt>
      <trkpt lat="46.10096" lon="4.54356">
        <ele>690.79998779297</ele>
        <time>2019-08-27T13:50:56.000Z</time>
      </trkpt>
      <trkpt lat="46.10093" lon="4.54354">
        <ele>690.79998779297</ele>
        <time>2019-08-27T13:50:57.000Z</time>
      </trkpt>
      <trkpt lat="46.10084" lon="4.54351">
        <ele>690.20001220703</ele>
        <time>2019-08-27T13:51:01.000Z</time>
      </trkpt>
      <trkpt lat="46.10074" lon="4.54349">
        <ele>689.20001220703</ele>
        <time>2019-08-27T13:51:05.000Z</time>
      </trkpt>
      <trkpt lat="46.10071" lon="4.54349">
        <ele>689</ele>
        <time>2019-08-27T13:51:06.000Z</time>
      </trkpt>
      <trkpt lat="46.10063" lon="4.54347">
        <ele>688</ele>
        <time>2019-08-27T13:51:10.000Z</time>
      </trkpt>
      <trkpt lat="46.1006" lon="4.54347">
        <ele>687.59997558594</ele>
        <time>2019-08-27T13:51:11.000Z</time>
      </trkpt>
      <trkpt lat="46.10058" lon="4.54347">
        <ele>687.59997558594</ele>
        <time>2019-08-27T13:51:12.000Z</time>
      </trkpt>
      <trkpt lat="46.10053" lon="4.54347">
        <ele>688</ele>
        <time>2019-08-27T13:51:14.000Z</time>
      </trkpt>
      <trkpt lat="46.1005" lon="4.54347">
        <ele>688.20001220703</ele>
        <time>2019-08-27T13:51:15.000Z</time>
      </trkpt>
      <trkpt lat="46.10042" lon="4.54347">
        <ele>688.40002441406</ele>
        <time>2019-08-27T13:51:18.000Z</time>
      </trkpt>
      <trkpt lat="46.10027" lon="4.54344">
        <ele>689.40002441406</ele>
        <time>2019-08-27T13:51:24.000Z</time>
      </trkpt>
      <trkpt lat="46.10013" lon="4.54344">
        <ele>689.40002441406</ele>
        <time>2019-08-27T13:51:30.000Z</time>
      </trkpt>
      <trkpt lat="46.10011" lon="4.54344">
        <ele>689.40002441406</ele>
        <time>2019-08-27T13:51:31.000Z</time>
      </trkpt>
      <trkpt lat="46.09998" lon="4.54344">
        <ele>689.40002441406</ele>
        <time>2019-08-27T13:51:36.000Z</time>
      </trkpt>
      <trkpt lat="46.09988" lon="4.54343">
        <ele>689.79998779297</ele>
        <time>2019-08-27T13:51:40.000Z</time>
      </trkpt>
      <trkpt lat="46.09985" lon="4.54342">
        <ele>690</ele>
        <time>2019-08-27T13:51:41.000Z</time>
      </trkpt>
      <trkpt lat="46.0997" lon="4.54342">
        <ele>690</ele>
        <time>2019-08-27T13:51:47.000Z</time>
      </trkpt>
      <trkpt lat="46.09952" lon="4.54338">
        <ele>690.79998779297</ele>
        <time>2019-08-27T13:51:54.000Z</time>
      </trkpt>
      <trkpt lat="46.09942" lon="4.54336">
        <ele>691</ele>
        <time>2019-08-27T13:51:58.000Z</time>
      </trkpt>
      <trkpt lat="46.09938" lon="4.54334">
        <ele>691.59997558594</ele>
        <time>2019-08-27T13:52:00.000Z</time>
      </trkpt>
      <trkpt lat="46.09922" lon="4.54327">
        <ele>692.79998779297</ele>
        <time>2019-08-27T13:52:07.000Z</time>
      </trkpt>
      <trkpt lat="46.0992" lon="4.54326">
        <ele>693</ele>
        <time>2019-08-27T13:52:08.000Z</time>
      </trkpt>
      <trkpt lat="46.09902" lon="4.54319">
        <ele>694.40002441406</ele>
        <time>2019-08-27T13:52:16.000Z</time>
      </trkpt>
      <trkpt lat="46.09887" lon="4.54311">
        <ele>695.79998779297</ele>
        <time>2019-08-27T13:52:23.000Z</time>
      </trkpt>
      <trkpt lat="46.09885" lon="4.54309">
        <ele>696.40002441406</ele>
        <time>2019-08-27T13:52:24.000Z</time>
      </trkpt>
      <trkpt lat="46.09874" lon="4.54303">
        <ele>697.59997558594</ele>
        <time>2019-08-27T13:52:29.000Z</time>
      </trkpt>
      <trkpt lat="46.09866" lon="4.54298">
        <ele>698.59997558594</ele>
        <time>2019-08-27T13:52:33.000Z</time>
      </trkpt>
      <trkpt lat="46.09863" lon="4.54296">
        <ele>698.79998779297</ele>
        <time>2019-08-27T13:52:34.000Z</time>
      </trkpt>
      <trkpt lat="46.09861" lon="4.54294">
        <ele>699.59997558594</ele>
        <time>2019-08-27T13:52:35.000Z</time>
      </trkpt>
      <trkpt lat="46.09855" lon="4.54291">
        <ele>700.20001220703</ele>
        <time>2019-08-27T13:52:38.000Z</time>
      </trkpt>
      <trkpt lat="46.09846" lon="4.54287">
        <ele>700.59997558594</ele>
        <time>2019-08-27T13:52:42.000Z</time>
      </trkpt>
      <trkpt lat="46.09841" lon="4.54284">
        <ele>701</ele>
        <time>2019-08-27T13:52:44.000Z</time>
      </trkpt>
      <trkpt lat="46.09835" lon="4.5428">
        <ele>700.79998779297</ele>
        <time>2019-08-27T13:52:47.000Z</time>
      </trkpt>
      <trkpt lat="46.09832" lon="4.5428">
        <ele>700.59997558594</ele>
        <time>2019-08-27T13:52:48.000Z</time>
      </trkpt>
      <trkpt lat="46.09818" lon="4.54272">
        <ele>699.79998779297</ele>
        <time>2019-08-27T13:52:54.000Z</time>
      </trkpt>
      <trkpt lat="46.09814" lon="4.54269">
        <ele>699.59997558594</ele>
        <time>2019-08-27T13:52:56.000Z</time>
      </trkpt>
      <trkpt lat="46.098" lon="4.54262">
        <ele>698.20001220703</ele>
        <time>2019-08-27T13:53:02.000Z</time>
      </trkpt>
      <trkpt lat="46.09795" lon="4.5426">
        <ele>697.59997558594</ele>
        <time>2019-08-27T13:53:04.000Z</time>
      </trkpt>
      <trkpt lat="46.09782" lon="4.54255">
        <ele>695.79998779297</ele>
        <time>2019-08-27T13:53:09.000Z</time>
      </trkpt>
      <trkpt lat="46.0977" lon="4.5425">
        <ele>694.59997558594</ele>
        <time>2019-08-27T13:53:14.000Z</time>
      </trkpt>
      <trkpt lat="46.09761" lon="4.54245">
        <ele>693.59997558594</ele>
        <time>2019-08-27T13:53:18.000Z</time>
      </trkpt>
      <trkpt lat="46.09749" lon="4.54238">
        <ele>692.59997558594</ele>
        <time>2019-08-27T13:53:23.000Z</time>
      </trkpt>
    </trkseg>
  </trk>
</gpx>